<?xml version="1.0" encoding="UTF-8" standalone="no" ?>
<gpx xmlns="http://www.topografix.com/GPX/1/1" xmlns:xsi="http://www.w3.org/2001/XMLSchema-instance" xsi:schemaLocation="http://www.topografix.com/GPX/1/1 http://www.topografix.com/GPX/1/1/gpx.xsd" version="1.1" creator="VisuGPX - https://www.visugpx.com">
  <metadata>
    <name>Nabain</name>
  </metadata>
  <trk>
    <name><![CDATA[Nabain]]></name>
    <trkseg>
      <trkpt lat="42.44528" lon="0.06836">
        <ele>637.5</ele>
        <time>2016-04-10T07:02:49Z</time>
      </trkpt>
      <trkpt lat="42.44529" lon="0.06835">
        <ele>637.5</ele>
        <time>2016-04-10T07:02:50Z</time>
      </trkpt>
      <trkpt lat="42.4453" lon="0.06827">
        <ele>642.3</ele>
        <time>2016-04-10T07:02:54Z</time>
      </trkpt>
      <trkpt lat="42.44543" lon="0.06803">
        <ele>642.8</ele>
        <time>2016-04-10T07:03:10Z</time>
      </trkpt>
      <trkpt lat="42.44551" lon="0.06791">
        <ele>643.7</ele>
        <time>2016-04-10T07:03:17Z</time>
      </trkpt>
      <trkpt lat="42.4456" lon="0.06782">
        <ele>643.7</ele>
        <time>2016-04-10T07:03:24Z</time>
      </trkpt>
      <trkpt lat="42.44561" lon="0.0678">
        <ele>643.7</ele>
        <time>2016-04-10T07:03:25Z</time>
      </trkpt>
      <trkpt lat="42.44567" lon="0.06761">
        <ele>643.7</ele>
        <time>2016-04-10T07:03:31Z</time>
      </trkpt>
      <trkpt lat="42.44575" lon="0.06749">
        <ele>644.7</ele>
        <time>2016-04-10T07:03:38Z</time>
      </trkpt>
      <trkpt lat="42.44577" lon="0.0675">
        <ele>644.7</ele>
        <time>2016-04-10T07:03:45Z</time>
      </trkpt>
      <trkpt lat="42.44577" lon="0.06749">
        <ele>644.7</ele>
        <time>2016-04-10T07:03:52Z</time>
      </trkpt>
      <trkpt lat="42.44578" lon="0.0675">
        <ele>644.7</ele>
        <time>2016-04-10T07:04:04Z</time>
      </trkpt>
      <trkpt lat="42.44579" lon="0.06748">
        <ele>644.7</ele>
        <time>2016-04-10T07:04:24Z</time>
      </trkpt>
      <trkpt lat="42.44578" lon="0.06747">
        <ele>644.7</ele>
        <time>2016-04-10T07:04:42Z</time>
      </trkpt>
      <trkpt lat="42.44579" lon="0.06748">
        <ele>644.7</ele>
        <time>2016-04-10T07:05:03Z</time>
      </trkpt>
      <trkpt lat="42.44578" lon="0.06748">
        <ele>645.2</ele>
        <time>2016-04-10T07:05:23Z</time>
      </trkpt>
      <trkpt lat="42.4458" lon="0.06743">
        <ele>645.2</ele>
        <time>2016-04-10T07:05:42Z</time>
      </trkpt>
      <trkpt lat="42.44581" lon="0.06744">
        <ele>645.7</ele>
        <time>2016-04-10T07:06:01Z</time>
      </trkpt>
      <trkpt lat="42.44581" lon="0.06743">
        <ele>645.7</ele>
        <time>2016-04-10T07:06:15Z</time>
      </trkpt>
      <trkpt lat="42.44582" lon="0.06741">
        <ele>646.1</ele>
        <time>2016-04-10T07:06:31Z</time>
      </trkpt>
      <trkpt lat="42.44582" lon="0.0674">
        <ele>646.1</ele>
        <time>2016-04-10T07:06:47Z</time>
      </trkpt>
      <trkpt lat="42.44582" lon="0.06743">
        <ele>646.1</ele>
        <time>2016-04-10T07:07:04Z</time>
      </trkpt>
      <trkpt lat="42.44583" lon="0.06744">
        <ele>646.6</ele>
        <time>2016-04-10T07:07:18Z</time>
      </trkpt>
      <trkpt lat="42.44583" lon="0.06744">
        <ele>646.6</ele>
        <time>2016-04-10T07:07:34Z</time>
      </trkpt>
      <trkpt lat="42.44582" lon="0.06745">
        <ele>646.6</ele>
        <time>2016-04-10T07:07:46Z</time>
      </trkpt>
      <trkpt lat="42.44582" lon="0.06744">
        <ele>647.1</ele>
        <time>2016-04-10T07:07:59Z</time>
      </trkpt>
      <trkpt lat="42.44582" lon="0.06743">
        <ele>647.1</ele>
        <time>2016-04-10T07:08:16Z</time>
      </trkpt>
      <trkpt lat="42.44582" lon="0.06744">
        <ele>647.1</ele>
        <time>2016-04-10T07:08:34Z</time>
      </trkpt>
      <trkpt lat="42.44581" lon="0.06746">
        <ele>647.6</ele>
        <time>2016-04-10T07:09:00Z</time>
      </trkpt>
      <trkpt lat="42.44582" lon="0.06746">
        <ele>648.1</ele>
        <time>2016-04-10T07:09:16Z</time>
      </trkpt>
      <trkpt lat="42.44583" lon="0.06746">
        <ele>648.1</ele>
        <time>2016-04-10T07:09:18Z</time>
      </trkpt>
      <trkpt lat="42.44588" lon="0.06748">
        <ele>648.1</ele>
        <time>2016-04-10T07:09:24Z</time>
      </trkpt>
      <trkpt lat="42.44586" lon="0.06744">
        <ele>648.5</ele>
        <time>2016-04-10T07:09:31Z</time>
      </trkpt>
      <trkpt lat="42.44586" lon="0.06743">
        <ele>648.5</ele>
        <time>2016-04-10T07:09:38Z</time>
      </trkpt>
      <trkpt lat="42.44586" lon="0.06743">
        <ele>648.5</ele>
        <time>2016-04-10T07:09:45Z</time>
      </trkpt>
      <trkpt lat="42.44585" lon="0.06742">
        <ele>648.5</ele>
        <time>2016-04-10T07:09:48Z</time>
      </trkpt>
      <trkpt lat="42.4458" lon="0.06739">
        <ele>648.5</ele>
        <time>2016-04-10T07:09:55Z</time>
      </trkpt>
      <trkpt lat="42.44581" lon="0.06733">
        <ele>648.5</ele>
        <time>2016-04-10T07:10:08Z</time>
      </trkpt>
      <trkpt lat="42.44582" lon="0.06728">
        <ele>649</ele>
        <time>2016-04-10T07:10:32Z</time>
      </trkpt>
      <trkpt lat="42.44583" lon="0.06731">
        <ele>649</ele>
        <time>2016-04-10T07:10:49Z</time>
      </trkpt>
      <trkpt lat="42.44585" lon="0.06733">
        <ele>649.5</ele>
        <time>2016-04-10T07:11:04Z</time>
      </trkpt>
      <trkpt lat="42.44583" lon="0.06734">
        <ele>649.5</ele>
        <time>2016-04-10T07:11:24Z</time>
      </trkpt>
      <trkpt lat="42.44582" lon="0.06734">
        <ele>649.5</ele>
        <time>2016-04-10T07:11:27Z</time>
      </trkpt>
      <trkpt lat="42.44584" lon="0.06745">
        <ele>649.5</ele>
        <time>2016-04-10T07:11:33Z</time>
      </trkpt>
      <trkpt lat="42.44592" lon="0.06754">
        <ele>649.5</ele>
        <time>2016-04-10T07:11:39Z</time>
      </trkpt>
      <trkpt lat="42.44599" lon="0.06755">
        <ele>650</ele>
        <time>2016-04-10T07:11:47Z</time>
      </trkpt>
      <trkpt lat="42.44599" lon="0.06752">
        <ele>650</ele>
        <time>2016-04-10T07:12:04Z</time>
      </trkpt>
      <trkpt lat="42.446" lon="0.06752">
        <ele>650</ele>
        <time>2016-04-10T07:12:20Z</time>
      </trkpt>
      <trkpt lat="42.44596" lon="0.0675">
        <ele>650</ele>
        <time>2016-04-10T07:12:42Z</time>
      </trkpt>
      <trkpt lat="42.44597" lon="0.0675">
        <ele>650</ele>
        <time>2016-04-10T07:12:50Z</time>
      </trkpt>
      <trkpt lat="42.44598" lon="0.06752">
        <ele>650</ele>
        <time>2016-04-10T07:13:04Z</time>
      </trkpt>
      <trkpt lat="42.44603" lon="0.06754">
        <ele>650</ele>
        <time>2016-04-10T07:13:13Z</time>
      </trkpt>
      <trkpt lat="42.44608" lon="0.0675">
        <ele>650</ele>
        <time>2016-04-10T07:13:17Z</time>
      </trkpt>
      <trkpt lat="42.44617" lon="0.06736">
        <ele>650.5</ele>
        <time>2016-04-10T07:13:25Z</time>
      </trkpt>
      <trkpt lat="42.44627" lon="0.06721">
        <ele>650.5</ele>
        <time>2016-04-10T07:13:33Z</time>
      </trkpt>
      <trkpt lat="42.44634" lon="0.06718">
        <ele>650.5</ele>
        <time>2016-04-10T07:13:37Z</time>
      </trkpt>
      <trkpt lat="42.4465" lon="0.06716">
        <ele>648.1</ele>
        <time>2016-04-10T07:13:43Z</time>
      </trkpt>
      <trkpt lat="42.44672" lon="0.06727">
        <ele>646.1</ele>
        <time>2016-04-10T07:13:48Z</time>
      </trkpt>
      <trkpt lat="42.44683" lon="0.06729">
        <ele>645.2</ele>
        <time>2016-04-10T07:13:50Z</time>
      </trkpt>
      <trkpt lat="42.44699" lon="0.06729">
        <ele>644.2</ele>
        <time>2016-04-10T07:13:53Z</time>
      </trkpt>
      <trkpt lat="42.4471" lon="0.0673">
        <ele>643.7</ele>
        <time>2016-04-10T07:13:55Z</time>
      </trkpt>
      <trkpt lat="42.44732" lon="0.06724">
        <ele>642.8</ele>
        <time>2016-04-10T07:13:59Z</time>
      </trkpt>
      <trkpt lat="42.44738" lon="0.0672">
        <ele>642.3</ele>
        <time>2016-04-10T07:14:00Z</time>
      </trkpt>
      <trkpt lat="42.44742" lon="0.06717">
        <ele>642.3</ele>
        <time>2016-04-10T07:14:01Z</time>
      </trkpt>
      <trkpt lat="42.44766" lon="0.06698">
        <ele>639.9</ele>
        <time>2016-04-10T07:14:06Z</time>
      </trkpt>
      <trkpt lat="42.44771" lon="0.06697">
        <ele>639.9</ele>
        <time>2016-04-10T07:14:07Z</time>
      </trkpt>
      <trkpt lat="42.44776" lon="0.06697">
        <ele>639.9</ele>
        <time>2016-04-10T07:14:08Z</time>
      </trkpt>
      <trkpt lat="42.44779" lon="0.06696">
        <ele>639.9</ele>
        <time>2016-04-10T07:14:09Z</time>
      </trkpt>
      <trkpt lat="42.44782" lon="0.06694">
        <ele>641.3</ele>
        <time>2016-04-10T07:14:10Z</time>
      </trkpt>
      <trkpt lat="42.44784" lon="0.06694">
        <ele>641.3</ele>
        <time>2016-04-10T07:14:11Z</time>
      </trkpt>
      <trkpt lat="42.44798" lon="0.06687">
        <ele>641.8</ele>
        <time>2016-04-10T07:14:17Z</time>
      </trkpt>
      <trkpt lat="42.44822" lon="0.06672">
        <ele>642.8</ele>
        <time>2016-04-10T07:14:26Z</time>
      </trkpt>
      <trkpt lat="42.44839" lon="0.0667">
        <ele>643.3</ele>
        <time>2016-04-10T07:14:32Z</time>
      </trkpt>
      <trkpt lat="42.4486" lon="0.06663">
        <ele>643.3</ele>
        <time>2016-04-10T07:14:39Z</time>
      </trkpt>
      <trkpt lat="42.44887" lon="0.06657">
        <ele>644.2</ele>
        <time>2016-04-10T07:14:48Z</time>
      </trkpt>
      <trkpt lat="42.44905" lon="0.06653">
        <ele>644.7</ele>
        <time>2016-04-10T07:14:54Z</time>
      </trkpt>
      <trkpt lat="42.44923" lon="0.06651">
        <ele>643.7</ele>
        <time>2016-04-10T07:14:59Z</time>
      </trkpt>
      <trkpt lat="42.44929" lon="0.06664">
        <ele>645.2</ele>
        <time>2016-04-10T07:15:03Z</time>
      </trkpt>
      <trkpt lat="42.44933" lon="0.06685">
        <ele>647.1</ele>
        <time>2016-04-10T07:15:11Z</time>
      </trkpt>
      <trkpt lat="42.44942" lon="0.06703">
        <ele>649</ele>
        <time>2016-04-10T07:15:19Z</time>
      </trkpt>
      <trkpt lat="42.44959" lon="0.06711">
        <ele>649.5</ele>
        <time>2016-04-10T07:15:26Z</time>
      </trkpt>
      <trkpt lat="42.44974" lon="0.06708">
        <ele>649</ele>
        <time>2016-04-10T07:15:32Z</time>
      </trkpt>
      <trkpt lat="42.44979" lon="0.06692">
        <ele>650.5</ele>
        <time>2016-04-10T07:15:37Z</time>
      </trkpt>
      <trkpt lat="42.44987" lon="0.06677">
        <ele>651</ele>
        <time>2016-04-10T07:15:43Z</time>
      </trkpt>
      <trkpt lat="42.44994" lon="0.06662">
        <ele>651</ele>
        <time>2016-04-10T07:15:47Z</time>
      </trkpt>
      <trkpt lat="42.44998" lon="0.06644">
        <ele>651</ele>
        <time>2016-04-10T07:15:53Z</time>
      </trkpt>
      <trkpt lat="42.4502" lon="0.0665">
        <ele>646.6</ele>
        <time>2016-04-10T07:15:58Z</time>
      </trkpt>
      <trkpt lat="42.45027" lon="0.06653">
        <ele>645.2</ele>
        <time>2016-04-10T07:15:59Z</time>
      </trkpt>
      <trkpt lat="42.45035" lon="0.06658">
        <ele>642.8</ele>
        <time>2016-04-10T07:16:00Z</time>
      </trkpt>
      <trkpt lat="42.4504" lon="0.06661">
        <ele>642.8</ele>
        <time>2016-04-10T07:16:01Z</time>
      </trkpt>
      <trkpt lat="42.45046" lon="0.06665">
        <ele>641.3</ele>
        <time>2016-04-10T07:16:02Z</time>
      </trkpt>
      <trkpt lat="42.45052" lon="0.06669">
        <ele>639.9</ele>
        <time>2016-04-10T07:16:03Z</time>
      </trkpt>
      <trkpt lat="42.45059" lon="0.06674">
        <ele>638.5</ele>
        <time>2016-04-10T07:16:04Z</time>
      </trkpt>
      <trkpt lat="42.45066" lon="0.06678">
        <ele>637</ele>
        <time>2016-04-10T07:16:05Z</time>
      </trkpt>
      <trkpt lat="42.45073" lon="0.0668">
        <ele>635.6</ele>
        <time>2016-04-10T07:16:06Z</time>
      </trkpt>
      <trkpt lat="42.4508" lon="0.06684">
        <ele>635.1</ele>
        <time>2016-04-10T07:16:07Z</time>
      </trkpt>
      <trkpt lat="42.45086" lon="0.0669">
        <ele>634.1</ele>
        <time>2016-04-10T07:16:08Z</time>
      </trkpt>
      <trkpt lat="42.45091" lon="0.06697">
        <ele>633.7</ele>
        <time>2016-04-10T07:16:09Z</time>
      </trkpt>
      <trkpt lat="42.45095" lon="0.06705">
        <ele>633.2</ele>
        <time>2016-04-10T07:16:10Z</time>
      </trkpt>
      <trkpt lat="42.45097" lon="0.06714">
        <ele>633.2</ele>
        <time>2016-04-10T07:16:11Z</time>
      </trkpt>
      <trkpt lat="42.45098" lon="0.06722">
        <ele>633.2</ele>
        <time>2016-04-10T07:16:12Z</time>
      </trkpt>
      <trkpt lat="42.45098" lon="0.06729">
        <ele>633.2</ele>
        <time>2016-04-10T07:16:13Z</time>
      </trkpt>
      <trkpt lat="42.45097" lon="0.06735">
        <ele>633.2</ele>
        <time>2016-04-10T07:16:14Z</time>
      </trkpt>
      <trkpt lat="42.45092" lon="0.06753">
        <ele>635.6</ele>
        <time>2016-04-10T07:16:19Z</time>
      </trkpt>
      <trkpt lat="42.45093" lon="0.06773">
        <ele>637.5</ele>
        <time>2016-04-10T07:16:27Z</time>
      </trkpt>
      <trkpt lat="42.451" lon="0.06793">
        <ele>639.4</ele>
        <time>2016-04-10T07:16:36Z</time>
      </trkpt>
      <trkpt lat="42.45108" lon="0.06806">
        <ele>640.9</ele>
        <time>2016-04-10T07:16:43Z</time>
      </trkpt>
      <trkpt lat="42.45113" lon="0.06825">
        <ele>642.8</ele>
        <time>2016-04-10T07:16:52Z</time>
      </trkpt>
      <trkpt lat="42.45116" lon="0.06852">
        <ele>644.7</ele>
        <time>2016-04-10T07:17:03Z</time>
      </trkpt>
      <trkpt lat="42.45118" lon="0.06879">
        <ele>646.6</ele>
        <time>2016-04-10T07:17:14Z</time>
      </trkpt>
      <trkpt lat="42.45116" lon="0.06902">
        <ele>646.6</ele>
        <time>2016-04-10T07:17:22Z</time>
      </trkpt>
      <trkpt lat="42.45117" lon="0.06916">
        <ele>646.6</ele>
        <time>2016-04-10T07:17:26Z</time>
      </trkpt>
      <trkpt lat="42.45119" lon="0.06919">
        <ele>646.6</ele>
        <time>2016-04-10T07:17:27Z</time>
      </trkpt>
      <trkpt lat="42.45125" lon="0.06924">
        <ele>646.6</ele>
        <time>2016-04-10T07:17:30Z</time>
      </trkpt>
      <trkpt lat="42.45143" lon="0.06931">
        <ele>646.6</ele>
        <time>2016-04-10T07:17:39Z</time>
      </trkpt>
      <trkpt lat="42.45148" lon="0.06945">
        <ele>649.5</ele>
        <time>2016-04-10T07:17:47Z</time>
      </trkpt>
      <trkpt lat="42.45144" lon="0.06964">
        <ele>651.9</ele>
        <time>2016-04-10T07:17:58Z</time>
      </trkpt>
      <trkpt lat="42.45137" lon="0.06979">
        <ele>653.8</ele>
        <time>2016-04-10T07:18:07Z</time>
      </trkpt>
      <trkpt lat="42.45136" lon="0.06993">
        <ele>654.8</ele>
        <time>2016-04-10T07:18:14Z</time>
      </trkpt>
      <trkpt lat="42.45147" lon="0.07012">
        <ele>657.2</ele>
        <time>2016-04-10T07:18:25Z</time>
      </trkpt>
      <trkpt lat="42.45153" lon="0.07024">
        <ele>658.2</ele>
        <time>2016-04-10T07:18:33Z</time>
      </trkpt>
      <trkpt lat="42.4516" lon="0.07039">
        <ele>660.1</ele>
        <time>2016-04-10T07:18:43Z</time>
      </trkpt>
      <trkpt lat="42.4516" lon="0.0704">
        <ele>660.6</ele>
        <time>2016-04-10T07:18:50Z</time>
      </trkpt>
      <trkpt lat="42.45161" lon="0.0704">
        <ele>660.6</ele>
        <time>2016-04-10T07:19:05Z</time>
      </trkpt>
      <trkpt lat="42.4516" lon="0.07039">
        <ele>660.6</ele>
        <time>2016-04-10T07:19:21Z</time>
      </trkpt>
      <trkpt lat="42.45161" lon="0.0704">
        <ele>660.6</ele>
        <time>2016-04-10T07:19:36Z</time>
      </trkpt>
      <trkpt lat="42.45161" lon="0.07042">
        <ele>660.6</ele>
        <time>2016-04-10T07:19:51Z</time>
      </trkpt>
      <trkpt lat="42.45161" lon="0.07042">
        <ele>660.6</ele>
        <time>2016-04-10T07:20:03Z</time>
      </trkpt>
      <trkpt lat="42.45161" lon="0.07042">
        <ele>660.1</ele>
        <time>2016-04-10T07:20:17Z</time>
      </trkpt>
      <trkpt lat="42.45161" lon="0.07041">
        <ele>660.1</ele>
        <time>2016-04-10T07:20:27Z</time>
      </trkpt>
      <trkpt lat="42.45161" lon="0.07041">
        <ele>660.1</ele>
        <time>2016-04-10T07:20:45Z</time>
      </trkpt>
      <trkpt lat="42.45161" lon="0.07044">
        <ele>660.6</ele>
        <time>2016-04-10T07:20:52Z</time>
      </trkpt>
      <trkpt lat="42.45161" lon="0.07046">
        <ele>660.6</ele>
        <time>2016-04-10T07:20:53Z</time>
      </trkpt>
      <trkpt lat="42.45172" lon="0.07058">
        <ele>663</ele>
        <time>2016-04-10T07:21:02Z</time>
      </trkpt>
      <trkpt lat="42.45175" lon="0.07059">
        <ele>663</ele>
        <time>2016-04-10T07:21:04Z</time>
      </trkpt>
      <trkpt lat="42.45185" lon="0.07056">
        <ele>664.9</ele>
        <time>2016-04-10T07:21:12Z</time>
      </trkpt>
      <trkpt lat="42.45186" lon="0.07055">
        <ele>664.9</ele>
        <time>2016-04-10T07:21:13Z</time>
      </trkpt>
      <trkpt lat="42.45187" lon="0.07054">
        <ele>664.9</ele>
        <time>2016-04-10T07:21:14Z</time>
      </trkpt>
      <trkpt lat="42.45195" lon="0.07044">
        <ele>666.3</ele>
        <time>2016-04-10T07:21:23Z</time>
      </trkpt>
      <trkpt lat="42.45203" lon="0.0703">
        <ele>667.8</ele>
        <time>2016-04-10T07:21:33Z</time>
      </trkpt>
      <trkpt lat="42.45213" lon="0.07015">
        <ele>670.2</ele>
        <time>2016-04-10T07:21:45Z</time>
      </trkpt>
      <trkpt lat="42.45213" lon="0.07013">
        <ele>670.2</ele>
        <time>2016-04-10T07:21:46Z</time>
      </trkpt>
      <trkpt lat="42.45214" lon="0.07012">
        <ele>670.7</ele>
        <time>2016-04-10T07:21:47Z</time>
      </trkpt>
      <trkpt lat="42.45215" lon="0.0701">
        <ele>670.7</ele>
        <time>2016-04-10T07:21:48Z</time>
      </trkpt>
      <trkpt lat="42.45216" lon="0.07009">
        <ele>670.7</ele>
        <time>2016-04-10T07:21:49Z</time>
      </trkpt>
      <trkpt lat="42.45217" lon="0.07008">
        <ele>671.6</ele>
        <time>2016-04-10T07:21:50Z</time>
      </trkpt>
      <trkpt lat="42.45226" lon="0.06999">
        <ele>673.5</ele>
        <time>2016-04-10T07:21:58Z</time>
      </trkpt>
      <trkpt lat="42.4523" lon="0.06998">
        <ele>674</ele>
        <time>2016-04-10T07:22:00Z</time>
      </trkpt>
      <trkpt lat="42.45232" lon="0.06999">
        <ele>674.5</ele>
        <time>2016-04-10T07:22:01Z</time>
      </trkpt>
      <trkpt lat="42.45233" lon="0.07001">
        <ele>674.5</ele>
        <time>2016-04-10T07:22:02Z</time>
      </trkpt>
      <trkpt lat="42.45233" lon="0.07003">
        <ele>674.5</ele>
        <time>2016-04-10T07:22:03Z</time>
      </trkpt>
      <trkpt lat="42.45234" lon="0.07005">
        <ele>675</ele>
        <time>2016-04-10T07:22:08Z</time>
      </trkpt>
      <trkpt lat="42.45234" lon="0.07005">
        <ele>675</ele>
        <time>2016-04-10T07:22:21Z</time>
      </trkpt>
      <trkpt lat="42.45235" lon="0.07005">
        <ele>675</ele>
        <time>2016-04-10T07:22:29Z</time>
      </trkpt>
      <trkpt lat="42.45235" lon="0.07006">
        <ele>675</ele>
        <time>2016-04-10T07:22:42Z</time>
      </trkpt>
      <trkpt lat="42.45233" lon="0.07005">
        <ele>675</ele>
        <time>2016-04-10T07:22:50Z</time>
      </trkpt>
      <trkpt lat="42.45232" lon="0.07008">
        <ele>675</ele>
        <time>2016-04-10T07:22:52Z</time>
      </trkpt>
      <trkpt lat="42.45231" lon="0.0701">
        <ele>675</ele>
        <time>2016-04-10T07:22:53Z</time>
      </trkpt>
      <trkpt lat="42.45225" lon="0.07028">
        <ele>676.4</ele>
        <time>2016-04-10T07:23:00Z</time>
      </trkpt>
      <trkpt lat="42.4522" lon="0.07047">
        <ele>677.9</ele>
        <time>2016-04-10T07:23:08Z</time>
      </trkpt>
      <trkpt lat="42.45215" lon="0.07065">
        <ele>679.3</ele>
        <time>2016-04-10T07:23:16Z</time>
      </trkpt>
      <trkpt lat="42.45216" lon="0.0708">
        <ele>680.3</ele>
        <time>2016-04-10T07:23:24Z</time>
      </trkpt>
      <trkpt lat="42.45219" lon="0.07082">
        <ele>680.8</ele>
        <time>2016-04-10T07:23:26Z</time>
      </trkpt>
      <trkpt lat="42.45228" lon="0.07078">
        <ele>681.7</ele>
        <time>2016-04-10T07:23:33Z</time>
      </trkpt>
      <trkpt lat="42.45232" lon="0.0706">
        <ele>683.2</ele>
        <time>2016-04-10T07:23:41Z</time>
      </trkpt>
      <trkpt lat="42.45233" lon="0.07058">
        <ele>683.6</ele>
        <time>2016-04-10T07:23:42Z</time>
      </trkpt>
      <trkpt lat="42.45234" lon="0.07055">
        <ele>683.6</ele>
        <time>2016-04-10T07:23:43Z</time>
      </trkpt>
      <trkpt lat="42.45241" lon="0.07042">
        <ele>684.6</ele>
        <time>2016-04-10T07:23:49Z</time>
      </trkpt>
      <trkpt lat="42.45256" lon="0.07029">
        <ele>686</ele>
        <time>2016-04-10T07:23:58Z</time>
      </trkpt>
      <trkpt lat="42.4527" lon="0.07018">
        <ele>687</ele>
        <time>2016-04-10T07:24:06Z</time>
      </trkpt>
      <trkpt lat="42.45286" lon="0.07001">
        <ele>688.4</ele>
        <time>2016-04-10T07:24:16Z</time>
      </trkpt>
      <trkpt lat="42.45302" lon="0.06982">
        <ele>690.4</ele>
        <time>2016-04-10T07:24:26Z</time>
      </trkpt>
      <trkpt lat="42.45318" lon="0.0697">
        <ele>690.8</ele>
        <time>2016-04-10T07:24:34Z</time>
      </trkpt>
      <trkpt lat="42.45337" lon="0.06954">
        <ele>691.3</ele>
        <time>2016-04-10T07:24:43Z</time>
      </trkpt>
      <trkpt lat="42.45355" lon="0.06933">
        <ele>691.3</ele>
        <time>2016-04-10T07:24:51Z</time>
      </trkpt>
      <trkpt lat="42.45372" lon="0.06903">
        <ele>691.8</ele>
        <time>2016-04-10T07:25:01Z</time>
      </trkpt>
      <trkpt lat="42.45383" lon="0.06879">
        <ele>692.8</ele>
        <time>2016-04-10T07:25:09Z</time>
      </trkpt>
      <trkpt lat="42.45397" lon="0.06863">
        <ele>693.2</ele>
        <time>2016-04-10T07:25:16Z</time>
      </trkpt>
      <trkpt lat="42.45411" lon="0.06851">
        <ele>696.1</ele>
        <time>2016-04-10T07:25:24Z</time>
      </trkpt>
      <trkpt lat="42.45429" lon="0.06838">
        <ele>698.5</ele>
        <time>2016-04-10T07:25:34Z</time>
      </trkpt>
      <trkpt lat="42.45443" lon="0.06841">
        <ele>700.5</ele>
        <time>2016-04-10T07:25:42Z</time>
      </trkpt>
      <trkpt lat="42.45452" lon="0.06854">
        <ele>703.3</ele>
        <time>2016-04-10T07:25:51Z</time>
      </trkpt>
      <trkpt lat="42.45457" lon="0.06874">
        <ele>705.3</ele>
        <time>2016-04-10T07:26:01Z</time>
      </trkpt>
      <trkpt lat="42.45461" lon="0.06891">
        <ele>707.7</ele>
        <time>2016-04-10T07:26:10Z</time>
      </trkpt>
      <trkpt lat="42.45467" lon="0.06907">
        <ele>709.6</ele>
        <time>2016-04-10T07:26:19Z</time>
      </trkpt>
      <trkpt lat="42.45478" lon="0.0692">
        <ele>712</ele>
        <time>2016-04-10T07:26:29Z</time>
      </trkpt>
      <trkpt lat="42.45492" lon="0.06933">
        <ele>713.9</ele>
        <time>2016-04-10T07:26:39Z</time>
      </trkpt>
      <trkpt lat="42.45508" lon="0.06945">
        <ele>715.8</ele>
        <time>2016-04-10T07:26:50Z</time>
      </trkpt>
      <trkpt lat="42.45524" lon="0.06957">
        <ele>716.8</ele>
        <time>2016-04-10T07:27:01Z</time>
      </trkpt>
      <trkpt lat="42.45526" lon="0.0696">
        <ele>717.3</ele>
        <time>2016-04-10T07:27:03Z</time>
      </trkpt>
      <trkpt lat="42.45527" lon="0.06961">
        <ele>717.3</ele>
        <time>2016-04-10T07:27:04Z</time>
      </trkpt>
      <trkpt lat="42.45527" lon="0.06964">
        <ele>717.3</ele>
        <time>2016-04-10T07:27:05Z</time>
      </trkpt>
      <trkpt lat="42.45528" lon="0.06966">
        <ele>717.3</ele>
        <time>2016-04-10T07:27:06Z</time>
      </trkpt>
      <trkpt lat="42.45528" lon="0.06969">
        <ele>717.3</ele>
        <time>2016-04-10T07:27:07Z</time>
      </trkpt>
      <trkpt lat="42.45529" lon="0.06971">
        <ele>717.3</ele>
        <time>2016-04-10T07:27:08Z</time>
      </trkpt>
      <trkpt lat="42.45529" lon="0.06974">
        <ele>717.3</ele>
        <time>2016-04-10T07:27:09Z</time>
      </trkpt>
      <trkpt lat="42.4553" lon="0.06976">
        <ele>717.3</ele>
        <time>2016-04-10T07:27:10Z</time>
      </trkpt>
      <trkpt lat="42.45537" lon="0.06992">
        <ele>718.2</ele>
        <time>2016-04-10T07:27:17Z</time>
      </trkpt>
      <trkpt lat="42.45546" lon="0.07007">
        <ele>719.2</ele>
        <time>2016-04-10T07:27:25Z</time>
      </trkpt>
      <trkpt lat="42.45546" lon="0.07009">
        <ele>719.7</ele>
        <time>2016-04-10T07:27:26Z</time>
      </trkpt>
      <trkpt lat="42.45546" lon="0.07011">
        <ele>720.2</ele>
        <time>2016-04-10T07:27:27Z</time>
      </trkpt>
      <trkpt lat="42.45546" lon="0.07014">
        <ele>720.2</ele>
        <time>2016-04-10T07:27:28Z</time>
      </trkpt>
      <trkpt lat="42.45546" lon="0.07016">
        <ele>720.7</ele>
        <time>2016-04-10T07:27:29Z</time>
      </trkpt>
      <trkpt lat="42.45546" lon="0.07018">
        <ele>720.7</ele>
        <time>2016-04-10T07:27:30Z</time>
      </trkpt>
      <trkpt lat="42.45545" lon="0.0702">
        <ele>720.7</ele>
        <time>2016-04-10T07:27:31Z</time>
      </trkpt>
      <trkpt lat="42.45537" lon="0.0704">
        <ele>722.6</ele>
        <time>2016-04-10T07:27:40Z</time>
      </trkpt>
      <trkpt lat="42.45525" lon="0.07058">
        <ele>724.5</ele>
        <time>2016-04-10T07:27:50Z</time>
      </trkpt>
      <trkpt lat="42.4551" lon="0.07074">
        <ele>725.9</ele>
        <time>2016-04-10T07:28:01Z</time>
      </trkpt>
      <trkpt lat="42.45502" lon="0.07095">
        <ele>727.9</ele>
        <time>2016-04-10T07:28:11Z</time>
      </trkpt>
      <trkpt lat="42.45511" lon="0.07105">
        <ele>729.8</ele>
        <time>2016-04-10T07:28:18Z</time>
      </trkpt>
      <trkpt lat="42.45527" lon="0.071">
        <ele>731.2</ele>
        <time>2016-04-10T07:28:27Z</time>
      </trkpt>
      <trkpt lat="42.45542" lon="0.07096">
        <ele>733.6</ele>
        <time>2016-04-10T07:28:36Z</time>
      </trkpt>
      <trkpt lat="42.4556" lon="0.07091">
        <ele>735.1</ele>
        <time>2016-04-10T07:28:46Z</time>
      </trkpt>
      <trkpt lat="42.45576" lon="0.07089">
        <ele>736.5</ele>
        <time>2016-04-10T07:28:55Z</time>
      </trkpt>
      <trkpt lat="42.4559" lon="0.07082">
        <ele>738.4</ele>
        <time>2016-04-10T07:29:04Z</time>
      </trkpt>
      <trkpt lat="42.45601" lon="0.07076">
        <ele>740.3</ele>
        <time>2016-04-10T07:29:11Z</time>
      </trkpt>
      <trkpt lat="42.45613" lon="0.0707">
        <ele>742.8</ele>
        <time>2016-04-10T07:29:20Z</time>
      </trkpt>
      <trkpt lat="42.45622" lon="0.07066">
        <ele>744.7</ele>
        <time>2016-04-10T07:29:27Z</time>
      </trkpt>
      <trkpt lat="42.45623" lon="0.07065">
        <ele>745.2</ele>
        <time>2016-04-10T07:29:28Z</time>
      </trkpt>
      <trkpt lat="42.45624" lon="0.07064">
        <ele>745.2</ele>
        <time>2016-04-10T07:29:29Z</time>
      </trkpt>
      <trkpt lat="42.45625" lon="0.07063">
        <ele>745.6</ele>
        <time>2016-04-10T07:29:30Z</time>
      </trkpt>
      <trkpt lat="42.45626" lon="0.07062">
        <ele>746.1</ele>
        <time>2016-04-10T07:29:31Z</time>
      </trkpt>
      <trkpt lat="42.45635" lon="0.0705">
        <ele>748</ele>
        <time>2016-04-10T07:29:40Z</time>
      </trkpt>
      <trkpt lat="42.45645" lon="0.07044">
        <ele>750</ele>
        <time>2016-04-10T07:29:49Z</time>
      </trkpt>
      <trkpt lat="42.45657" lon="0.07044">
        <ele>751.9</ele>
        <time>2016-04-10T07:29:58Z</time>
      </trkpt>
      <trkpt lat="42.45672" lon="0.07049">
        <ele>754.3</ele>
        <time>2016-04-10T07:30:09Z</time>
      </trkpt>
      <trkpt lat="42.45683" lon="0.07052">
        <ele>756.7</ele>
        <time>2016-04-10T07:30:17Z</time>
      </trkpt>
      <trkpt lat="42.45695" lon="0.07056">
        <ele>758.1</ele>
        <time>2016-04-10T07:30:26Z</time>
      </trkpt>
      <trkpt lat="42.45711" lon="0.07059">
        <ele>761</ele>
        <time>2016-04-10T07:30:38Z</time>
      </trkpt>
      <trkpt lat="42.45724" lon="0.07062">
        <ele>762</ele>
        <time>2016-04-10T07:30:47Z</time>
      </trkpt>
      <trkpt lat="42.45734" lon="0.07065">
        <ele>763.4</ele>
        <time>2016-04-10T07:30:54Z</time>
      </trkpt>
      <trkpt lat="42.45745" lon="0.07067">
        <ele>764.9</ele>
        <time>2016-04-10T07:31:02Z</time>
      </trkpt>
      <trkpt lat="42.4576" lon="0.07067">
        <ele>766.3</ele>
        <time>2016-04-10T07:31:12Z</time>
      </trkpt>
      <trkpt lat="42.45773" lon="0.07066">
        <ele>768.2</ele>
        <time>2016-04-10T07:31:21Z</time>
      </trkpt>
      <trkpt lat="42.45788" lon="0.07064">
        <ele>770.6</ele>
        <time>2016-04-10T07:31:32Z</time>
      </trkpt>
      <trkpt lat="42.458" lon="0.0706">
        <ele>773</ele>
        <time>2016-04-10T07:31:41Z</time>
      </trkpt>
      <trkpt lat="42.45813" lon="0.07058">
        <ele>774.5</ele>
        <time>2016-04-10T07:31:50Z</time>
      </trkpt>
      <trkpt lat="42.45827" lon="0.07055">
        <ele>776.9</ele>
        <time>2016-04-10T07:32:01Z</time>
      </trkpt>
      <trkpt lat="42.45839" lon="0.07051">
        <ele>779.3</ele>
        <time>2016-04-10T07:32:10Z</time>
      </trkpt>
      <trkpt lat="42.45851" lon="0.07048">
        <ele>780.7</ele>
        <time>2016-04-10T07:32:19Z</time>
      </trkpt>
      <trkpt lat="42.45863" lon="0.07045">
        <ele>782.7</ele>
        <time>2016-04-10T07:32:28Z</time>
      </trkpt>
      <trkpt lat="42.45879" lon="0.07041">
        <ele>784.1</ele>
        <time>2016-04-10T07:32:39Z</time>
      </trkpt>
      <trkpt lat="42.45894" lon="0.07038">
        <ele>786</ele>
        <time>2016-04-10T07:32:49Z</time>
      </trkpt>
      <trkpt lat="42.45897" lon="0.07037">
        <ele>786.5</ele>
        <time>2016-04-10T07:32:54Z</time>
      </trkpt>
      <trkpt lat="42.459" lon="0.07037">
        <ele>786.5</ele>
        <time>2016-04-10T07:33:11Z</time>
      </trkpt>
      <trkpt lat="42.45899" lon="0.07037">
        <ele>786.5</ele>
        <time>2016-04-10T07:33:32Z</time>
      </trkpt>
      <trkpt lat="42.45899" lon="0.07039">
        <ele>786.5</ele>
        <time>2016-04-10T07:33:54Z</time>
      </trkpt>
      <trkpt lat="42.459" lon="0.07039">
        <ele>786.5</ele>
        <time>2016-04-10T07:34:00Z</time>
      </trkpt>
      <trkpt lat="42.45911" lon="0.07035">
        <ele>786.5</ele>
        <time>2016-04-10T07:34:06Z</time>
      </trkpt>
      <trkpt lat="42.45924" lon="0.07032">
        <ele>786.5</ele>
        <time>2016-04-10T07:34:13Z</time>
      </trkpt>
      <trkpt lat="42.45925" lon="0.07032">
        <ele>786.5</ele>
        <time>2016-04-10T07:34:20Z</time>
      </trkpt>
      <trkpt lat="42.45932" lon="0.07031">
        <ele>786.5</ele>
        <time>2016-04-10T07:34:28Z</time>
      </trkpt>
      <trkpt lat="42.45946" lon="0.07027">
        <ele>786.5</ele>
        <time>2016-04-10T07:34:35Z</time>
      </trkpt>
      <trkpt lat="42.45965" lon="0.07015">
        <ele>786.5</ele>
        <time>2016-04-10T07:34:43Z</time>
      </trkpt>
      <trkpt lat="42.45977" lon="0.07009">
        <ele>785</ele>
        <time>2016-04-10T07:34:46Z</time>
      </trkpt>
      <trkpt lat="42.45982" lon="0.07006">
        <ele>784.6</ele>
        <time>2016-04-10T07:34:47Z</time>
      </trkpt>
      <trkpt lat="42.46004" lon="0.06997">
        <ele>783.1</ele>
        <time>2016-04-10T07:34:51Z</time>
      </trkpt>
      <trkpt lat="42.46044" lon="0.06982">
        <ele>783.1</ele>
        <time>2016-04-10T07:34:59Z</time>
      </trkpt>
      <trkpt lat="42.46081" lon="0.06964">
        <ele>782.7</ele>
        <time>2016-04-10T07:35:07Z</time>
      </trkpt>
      <trkpt lat="42.46109" lon="0.06961">
        <ele>784.1</ele>
        <time>2016-04-10T07:35:14Z</time>
      </trkpt>
      <trkpt lat="42.46127" lon="0.06958">
        <ele>786.5</ele>
        <time>2016-04-10T07:35:22Z</time>
      </trkpt>
      <trkpt lat="42.46144" lon="0.06951">
        <ele>788.9</ele>
        <time>2016-04-10T07:35:31Z</time>
      </trkpt>
      <trkpt lat="42.4616" lon="0.06945">
        <ele>791.3</ele>
        <time>2016-04-10T07:35:41Z</time>
      </trkpt>
      <trkpt lat="42.46175" lon="0.06937">
        <ele>793.7</ele>
        <time>2016-04-10T07:35:51Z</time>
      </trkpt>
      <trkpt lat="42.46187" lon="0.0693">
        <ele>795.6</ele>
        <time>2016-04-10T07:35:59Z</time>
      </trkpt>
      <trkpt lat="42.462" lon="0.0693">
        <ele>797.5</ele>
        <time>2016-04-10T07:36:08Z</time>
      </trkpt>
      <trkpt lat="42.46204" lon="0.06934">
        <ele>798.5</ele>
        <time>2016-04-10T07:36:11Z</time>
      </trkpt>
      <trkpt lat="42.46204" lon="0.06936">
        <ele>798.5</ele>
        <time>2016-04-10T07:36:12Z</time>
      </trkpt>
      <trkpt lat="42.46206" lon="0.06955">
        <ele>800.9</ele>
        <time>2016-04-10T07:36:21Z</time>
      </trkpt>
      <trkpt lat="42.46206" lon="0.06974">
        <ele>802.4</ele>
        <time>2016-04-10T07:36:28Z</time>
      </trkpt>
      <trkpt lat="42.46203" lon="0.06999">
        <ele>804.8</ele>
        <time>2016-04-10T07:36:38Z</time>
      </trkpt>
      <trkpt lat="42.46202" lon="0.07014">
        <ele>805.7</ele>
        <time>2016-04-10T07:36:44Z</time>
      </trkpt>
      <trkpt lat="42.462" lon="0.07031">
        <ele>807.2</ele>
        <time>2016-04-10T07:36:52Z</time>
      </trkpt>
      <trkpt lat="42.46196" lon="0.07048">
        <ele>809.6</ele>
        <time>2016-04-10T07:37:00Z</time>
      </trkpt>
      <trkpt lat="42.46194" lon="0.07066">
        <ele>811.5</ele>
        <time>2016-04-10T07:37:09Z</time>
      </trkpt>
      <trkpt lat="42.46194" lon="0.07085">
        <ele>813.4</ele>
        <time>2016-04-10T07:37:18Z</time>
      </trkpt>
      <trkpt lat="42.46194" lon="0.07108">
        <ele>813.4</ele>
        <time>2016-04-10T07:37:25Z</time>
      </trkpt>
      <trkpt lat="42.46185" lon="0.07123">
        <ele>814.4</ele>
        <time>2016-04-10T07:37:31Z</time>
      </trkpt>
      <trkpt lat="42.46173" lon="0.07141">
        <ele>815.8</ele>
        <time>2016-04-10T07:37:40Z</time>
      </trkpt>
      <trkpt lat="42.46162" lon="0.07158">
        <ele>818.7</ele>
        <time>2016-04-10T07:37:50Z</time>
      </trkpt>
      <trkpt lat="42.4615" lon="0.07174">
        <ele>820.6</ele>
        <time>2016-04-10T07:38:00Z</time>
      </trkpt>
      <trkpt lat="42.4614" lon="0.07187">
        <ele>822.5</ele>
        <time>2016-04-10T07:38:08Z</time>
      </trkpt>
      <trkpt lat="42.4613" lon="0.07199">
        <ele>824.5</ele>
        <time>2016-04-10T07:38:17Z</time>
      </trkpt>
      <trkpt lat="42.46121" lon="0.07212">
        <ele>825.4</ele>
        <time>2016-04-10T07:38:25Z</time>
      </trkpt>
      <trkpt lat="42.46108" lon="0.07225">
        <ele>827.8</ele>
        <time>2016-04-10T07:38:34Z</time>
      </trkpt>
      <trkpt lat="42.46095" lon="0.07232">
        <ele>829.8</ele>
        <time>2016-04-10T07:38:42Z</time>
      </trkpt>
      <trkpt lat="42.46083" lon="0.07242">
        <ele>831.7</ele>
        <time>2016-04-10T07:38:51Z</time>
      </trkpt>
      <trkpt lat="42.46082" lon="0.07245">
        <ele>832.2</ele>
        <time>2016-04-10T07:38:52Z</time>
      </trkpt>
      <trkpt lat="42.46076" lon="0.07259">
        <ele>832.6</ele>
        <time>2016-04-10T07:38:58Z</time>
      </trkpt>
      <trkpt lat="42.46065" lon="0.07283">
        <ele>834.1</ele>
        <time>2016-04-10T07:39:08Z</time>
      </trkpt>
      <trkpt lat="42.46056" lon="0.07301">
        <ele>836.5</ele>
        <time>2016-04-10T07:39:17Z</time>
      </trkpt>
      <trkpt lat="42.46053" lon="0.07321">
        <ele>838.9</ele>
        <time>2016-04-10T07:39:26Z</time>
      </trkpt>
      <trkpt lat="42.46061" lon="0.07336">
        <ele>840.3</ele>
        <time>2016-04-10T07:39:34Z</time>
      </trkpt>
      <trkpt lat="42.46075" lon="0.07341">
        <ele>842.2</ele>
        <time>2016-04-10T07:39:42Z</time>
      </trkpt>
      <trkpt lat="42.46092" lon="0.07345">
        <ele>844.7</ele>
        <time>2016-04-10T07:39:52Z</time>
      </trkpt>
      <trkpt lat="42.46108" lon="0.07345">
        <ele>847.1</ele>
        <time>2016-04-10T07:40:02Z</time>
      </trkpt>
      <trkpt lat="42.4611" lon="0.07345">
        <ele>847.1</ele>
        <time>2016-04-10T07:40:03Z</time>
      </trkpt>
      <trkpt lat="42.46112" lon="0.07345">
        <ele>847.5</ele>
        <time>2016-04-10T07:40:04Z</time>
      </trkpt>
      <trkpt lat="42.46114" lon="0.07344">
        <ele>847.5</ele>
        <time>2016-04-10T07:40:05Z</time>
      </trkpt>
      <trkpt lat="42.46115" lon="0.07344">
        <ele>847.5</ele>
        <time>2016-04-10T07:40:06Z</time>
      </trkpt>
      <trkpt lat="42.46117" lon="0.07344">
        <ele>848</ele>
        <time>2016-04-10T07:40:07Z</time>
      </trkpt>
      <trkpt lat="42.46132" lon="0.07336">
        <ele>850.4</ele>
        <time>2016-04-10T07:40:17Z</time>
      </trkpt>
      <trkpt lat="42.46149" lon="0.07324">
        <ele>852.3</ele>
        <time>2016-04-10T07:40:28Z</time>
      </trkpt>
      <trkpt lat="42.46167" lon="0.07314">
        <ele>853.8</ele>
        <time>2016-04-10T07:40:37Z</time>
      </trkpt>
      <trkpt lat="42.46186" lon="0.07303">
        <ele>855.2</ele>
        <time>2016-04-10T07:40:46Z</time>
      </trkpt>
      <trkpt lat="42.46198" lon="0.07295">
        <ele>857.6</ele>
        <time>2016-04-10T07:40:54Z</time>
      </trkpt>
      <trkpt lat="42.46212" lon="0.0729">
        <ele>859.1</ele>
        <time>2016-04-10T07:41:02Z</time>
      </trkpt>
      <trkpt lat="42.46232" lon="0.07287">
        <ele>861</ele>
        <time>2016-04-10T07:41:12Z</time>
      </trkpt>
      <trkpt lat="42.46235" lon="0.07286">
        <ele>861.5</ele>
        <time>2016-04-10T07:41:14Z</time>
      </trkpt>
      <trkpt lat="42.46237" lon="0.07286">
        <ele>861.5</ele>
        <time>2016-04-10T07:41:15Z</time>
      </trkpt>
      <trkpt lat="42.4625" lon="0.07275">
        <ele>862.9</ele>
        <time>2016-04-10T07:41:24Z</time>
      </trkpt>
      <trkpt lat="42.46265" lon="0.07265">
        <ele>865.3</ele>
        <time>2016-04-10T07:41:34Z</time>
      </trkpt>
      <trkpt lat="42.46278" lon="0.07258">
        <ele>867.7</ele>
        <time>2016-04-10T07:41:43Z</time>
      </trkpt>
      <trkpt lat="42.46292" lon="0.07252">
        <ele>869.7</ele>
        <time>2016-04-10T07:41:53Z</time>
      </trkpt>
      <trkpt lat="42.46303" lon="0.07244">
        <ele>872.5</ele>
        <time>2016-04-10T07:42:02Z</time>
      </trkpt>
      <trkpt lat="42.46313" lon="0.07238">
        <ele>874.5</ele>
        <time>2016-04-10T07:42:11Z</time>
      </trkpt>
      <trkpt lat="42.46324" lon="0.07231">
        <ele>876.4</ele>
        <time>2016-04-10T07:42:20Z</time>
      </trkpt>
      <trkpt lat="42.46337" lon="0.07224">
        <ele>878.3</ele>
        <time>2016-04-10T07:42:30Z</time>
      </trkpt>
      <trkpt lat="42.4635" lon="0.07217">
        <ele>880.7</ele>
        <time>2016-04-10T07:42:41Z</time>
      </trkpt>
      <trkpt lat="42.46352" lon="0.07216">
        <ele>881.2</ele>
        <time>2016-04-10T07:42:43Z</time>
      </trkpt>
      <trkpt lat="42.46353" lon="0.07215">
        <ele>881.2</ele>
        <time>2016-04-10T07:42:44Z</time>
      </trkpt>
      <trkpt lat="42.46355" lon="0.07214">
        <ele>881.7</ele>
        <time>2016-04-10T07:42:45Z</time>
      </trkpt>
      <trkpt lat="42.46356" lon="0.07213">
        <ele>881.7</ele>
        <time>2016-04-10T07:42:46Z</time>
      </trkpt>
      <trkpt lat="42.46357" lon="0.07212">
        <ele>882.2</ele>
        <time>2016-04-10T07:42:47Z</time>
      </trkpt>
      <trkpt lat="42.46358" lon="0.07212">
        <ele>882.2</ele>
        <time>2016-04-10T07:42:48Z</time>
      </trkpt>
      <trkpt lat="42.46359" lon="0.0721">
        <ele>882.2</ele>
        <time>2016-04-10T07:42:49Z</time>
      </trkpt>
      <trkpt lat="42.46361" lon="0.07209">
        <ele>882.6</ele>
        <time>2016-04-10T07:42:50Z</time>
      </trkpt>
      <trkpt lat="42.46362" lon="0.07208">
        <ele>882.6</ele>
        <time>2016-04-10T07:42:51Z</time>
      </trkpt>
      <trkpt lat="42.46375" lon="0.07198">
        <ele>885</ele>
        <time>2016-04-10T07:43:02Z</time>
      </trkpt>
      <trkpt lat="42.46386" lon="0.0719">
        <ele>887.4</ele>
        <time>2016-04-10T07:43:11Z</time>
      </trkpt>
      <trkpt lat="42.46392" lon="0.07187">
        <ele>888.4</ele>
        <time>2016-04-10T07:43:15Z</time>
      </trkpt>
      <trkpt lat="42.46393" lon="0.07186">
        <ele>888.4</ele>
        <time>2016-04-10T07:43:16Z</time>
      </trkpt>
      <trkpt lat="42.46403" lon="0.07182">
        <ele>890.3</ele>
        <time>2016-04-10T07:43:24Z</time>
      </trkpt>
      <trkpt lat="42.46414" lon="0.07175">
        <ele>891.8</ele>
        <time>2016-04-10T07:43:31Z</time>
      </trkpt>
      <trkpt lat="42.46427" lon="0.07166">
        <ele>893.7</ele>
        <time>2016-04-10T07:43:41Z</time>
      </trkpt>
      <trkpt lat="42.46435" lon="0.07161">
        <ele>895.6</ele>
        <time>2016-04-10T07:43:48Z</time>
      </trkpt>
      <trkpt lat="42.46448" lon="0.07152">
        <ele>897</ele>
        <time>2016-04-10T07:43:57Z</time>
      </trkpt>
      <trkpt lat="42.46463" lon="0.07137">
        <ele>899</ele>
        <time>2016-04-10T07:44:08Z</time>
      </trkpt>
      <trkpt lat="42.46477" lon="0.07124">
        <ele>901.4</ele>
        <time>2016-04-10T07:44:19Z</time>
      </trkpt>
      <trkpt lat="42.46489" lon="0.07112">
        <ele>903.8</ele>
        <time>2016-04-10T07:44:29Z</time>
      </trkpt>
      <trkpt lat="42.46504" lon="0.07099">
        <ele>906.2</ele>
        <time>2016-04-10T07:44:40Z</time>
      </trkpt>
      <trkpt lat="42.46518" lon="0.0709">
        <ele>908.1</ele>
        <time>2016-04-10T07:44:49Z</time>
      </trkpt>
      <trkpt lat="42.46529" lon="0.07082">
        <ele>909.5</ele>
        <time>2016-04-10T07:44:57Z</time>
      </trkpt>
      <trkpt lat="42.46543" lon="0.07072">
        <ele>911</ele>
        <time>2016-04-10T07:45:06Z</time>
      </trkpt>
      <trkpt lat="42.46559" lon="0.07063">
        <ele>913.4</ele>
        <time>2016-04-10T07:45:16Z</time>
      </trkpt>
      <trkpt lat="42.46574" lon="0.07053">
        <ele>915.3</ele>
        <time>2016-04-10T07:45:25Z</time>
      </trkpt>
      <trkpt lat="42.46588" lon="0.07041">
        <ele>916.8</ele>
        <time>2016-04-10T07:45:34Z</time>
      </trkpt>
      <trkpt lat="42.46592" lon="0.07025">
        <ele>918.7</ele>
        <time>2016-04-10T07:45:41Z</time>
      </trkpt>
      <trkpt lat="42.46591" lon="0.07009">
        <ele>920.1</ele>
        <time>2016-04-10T07:45:49Z</time>
      </trkpt>
      <trkpt lat="42.46592" lon="0.07007">
        <ele>920.1</ele>
        <time>2016-04-10T07:45:50Z</time>
      </trkpt>
      <trkpt lat="42.46592" lon="0.07005">
        <ele>920.1</ele>
        <time>2016-04-10T07:45:51Z</time>
      </trkpt>
      <trkpt lat="42.46593" lon="0.07003">
        <ele>920.1</ele>
        <time>2016-04-10T07:45:52Z</time>
      </trkpt>
      <trkpt lat="42.46594" lon="0.07001">
        <ele>920.1</ele>
        <time>2016-04-10T07:45:53Z</time>
      </trkpt>
      <trkpt lat="42.46595" lon="0.06999">
        <ele>920.1</ele>
        <time>2016-04-10T07:45:54Z</time>
      </trkpt>
      <trkpt lat="42.46596" lon="0.06997">
        <ele>920.6</ele>
        <time>2016-04-10T07:45:55Z</time>
      </trkpt>
      <trkpt lat="42.46598" lon="0.06996">
        <ele>920.6</ele>
        <time>2016-04-10T07:45:56Z</time>
      </trkpt>
      <trkpt lat="42.46603" lon="0.06988">
        <ele>921.1</ele>
        <time>2016-04-10T07:46:00Z</time>
      </trkpt>
      <trkpt lat="42.46604" lon="0.06986">
        <ele>921.1</ele>
        <time>2016-04-10T07:46:01Z</time>
      </trkpt>
      <trkpt lat="42.46606" lon="0.06984">
        <ele>921.1</ele>
        <time>2016-04-10T07:46:02Z</time>
      </trkpt>
      <trkpt lat="42.46613" lon="0.06975">
        <ele>921.6</ele>
        <time>2016-04-10T07:46:07Z</time>
      </trkpt>
      <trkpt lat="42.46628" lon="0.06956">
        <ele>923.5</ele>
        <time>2016-04-10T07:46:17Z</time>
      </trkpt>
      <trkpt lat="42.46643" lon="0.06938">
        <ele>924.9</ele>
        <time>2016-04-10T07:46:27Z</time>
      </trkpt>
      <trkpt lat="42.46656" lon="0.06925">
        <ele>926.8</ele>
        <time>2016-04-10T07:46:36Z</time>
      </trkpt>
      <trkpt lat="42.46671" lon="0.06915">
        <ele>929.2</ele>
        <time>2016-04-10T07:46:46Z</time>
      </trkpt>
      <trkpt lat="42.46684" lon="0.06903">
        <ele>931.2</ele>
        <time>2016-04-10T07:46:56Z</time>
      </trkpt>
      <trkpt lat="42.46697" lon="0.06891">
        <ele>933.6</ele>
        <time>2016-04-10T07:47:07Z</time>
      </trkpt>
      <trkpt lat="42.46698" lon="0.0689">
        <ele>934.1</ele>
        <time>2016-04-10T07:47:08Z</time>
      </trkpt>
      <trkpt lat="42.46702" lon="0.06887">
        <ele>934.5</ele>
        <time>2016-04-10T07:47:12Z</time>
      </trkpt>
      <trkpt lat="42.46703" lon="0.06886">
        <ele>934.5</ele>
        <time>2016-04-10T07:47:13Z</time>
      </trkpt>
      <trkpt lat="42.46704" lon="0.06885">
        <ele>935</ele>
        <time>2016-04-10T07:47:14Z</time>
      </trkpt>
      <trkpt lat="42.46705" lon="0.06884">
        <ele>935</ele>
        <time>2016-04-10T07:47:15Z</time>
      </trkpt>
      <trkpt lat="42.46706" lon="0.06884">
        <ele>935</ele>
        <time>2016-04-10T07:47:16Z</time>
      </trkpt>
      <trkpt lat="42.46708" lon="0.06883">
        <ele>935.5</ele>
        <time>2016-04-10T07:47:17Z</time>
      </trkpt>
      <trkpt lat="42.46721" lon="0.06873">
        <ele>936.9</ele>
        <time>2016-04-10T07:47:27Z</time>
      </trkpt>
      <trkpt lat="42.46729" lon="0.06865">
        <ele>938.9</ele>
        <time>2016-04-10T07:47:34Z</time>
      </trkpt>
      <trkpt lat="42.46734" lon="0.06861">
        <ele>939.8</ele>
        <time>2016-04-10T07:47:38Z</time>
      </trkpt>
      <trkpt lat="42.46735" lon="0.0686">
        <ele>939.8</ele>
        <time>2016-04-10T07:47:39Z</time>
      </trkpt>
      <trkpt lat="42.46746" lon="0.06854">
        <ele>941.8</ele>
        <time>2016-04-10T07:47:47Z</time>
      </trkpt>
      <trkpt lat="42.46759" lon="0.06848">
        <ele>943.2</ele>
        <time>2016-04-10T07:47:55Z</time>
      </trkpt>
      <trkpt lat="42.46764" lon="0.06847">
        <ele>944.2</ele>
        <time>2016-04-10T07:47:58Z</time>
      </trkpt>
      <trkpt lat="42.46765" lon="0.06846">
        <ele>944.2</ele>
        <time>2016-04-10T07:47:59Z</time>
      </trkpt>
      <trkpt lat="42.46766" lon="0.06844">
        <ele>944.2</ele>
        <time>2016-04-10T07:48:00Z</time>
      </trkpt>
      <trkpt lat="42.46768" lon="0.06843">
        <ele>944.6</ele>
        <time>2016-04-10T07:48:01Z</time>
      </trkpt>
      <trkpt lat="42.4677" lon="0.06842">
        <ele>944.6</ele>
        <time>2016-04-10T07:48:02Z</time>
      </trkpt>
      <trkpt lat="42.46771" lon="0.06841">
        <ele>944.6</ele>
        <time>2016-04-10T07:48:03Z</time>
      </trkpt>
      <trkpt lat="42.46773" lon="0.0684">
        <ele>945.1</ele>
        <time>2016-04-10T07:48:04Z</time>
      </trkpt>
      <trkpt lat="42.46774" lon="0.06839">
        <ele>945.1</ele>
        <time>2016-04-10T07:48:05Z</time>
      </trkpt>
      <trkpt lat="42.46776" lon="0.06838">
        <ele>945.1</ele>
        <time>2016-04-10T07:48:06Z</time>
      </trkpt>
      <trkpt lat="42.46778" lon="0.06837">
        <ele>945.6</ele>
        <time>2016-04-10T07:48:07Z</time>
      </trkpt>
      <trkpt lat="42.46779" lon="0.06836">
        <ele>945.6</ele>
        <time>2016-04-10T07:48:08Z</time>
      </trkpt>
      <trkpt lat="42.46793" lon="0.06826">
        <ele>947.5</ele>
        <time>2016-04-10T07:48:17Z</time>
      </trkpt>
      <trkpt lat="42.46804" lon="0.06815">
        <ele>949.9</ele>
        <time>2016-04-10T07:48:26Z</time>
      </trkpt>
      <trkpt lat="42.46814" lon="0.06805">
        <ele>951.8</ele>
        <time>2016-04-10T07:48:34Z</time>
      </trkpt>
      <trkpt lat="42.46826" lon="0.06792">
        <ele>953.8</ele>
        <time>2016-04-10T07:48:44Z</time>
      </trkpt>
      <trkpt lat="42.46838" lon="0.06782">
        <ele>956.7</ele>
        <time>2016-04-10T07:48:54Z</time>
      </trkpt>
      <trkpt lat="42.46849" lon="0.06777">
        <ele>957.6</ele>
        <time>2016-04-10T07:49:02Z</time>
      </trkpt>
      <trkpt lat="42.46859" lon="0.06773">
        <ele>959</ele>
        <time>2016-04-10T07:49:09Z</time>
      </trkpt>
      <trkpt lat="42.4686" lon="0.06772">
        <ele>959</ele>
        <time>2016-04-10T07:49:10Z</time>
      </trkpt>
      <trkpt lat="42.46861" lon="0.06772">
        <ele>959</ele>
        <time>2016-04-10T07:49:11Z</time>
      </trkpt>
      <trkpt lat="42.46863" lon="0.06771">
        <ele>959.5</ele>
        <time>2016-04-10T07:49:12Z</time>
      </trkpt>
      <trkpt lat="42.46864" lon="0.06771">
        <ele>959.5</ele>
        <time>2016-04-10T07:49:13Z</time>
      </trkpt>
      <trkpt lat="42.46877" lon="0.06765">
        <ele>961.9</ele>
        <time>2016-04-10T07:49:22Z</time>
      </trkpt>
      <trkpt lat="42.46887" lon="0.06759">
        <ele>964.3</ele>
        <time>2016-04-10T07:49:30Z</time>
      </trkpt>
      <trkpt lat="42.46898" lon="0.06752">
        <ele>966.3</ele>
        <time>2016-04-10T07:49:38Z</time>
      </trkpt>
      <trkpt lat="42.46908" lon="0.06739">
        <ele>967.7</ele>
        <time>2016-04-10T07:49:47Z</time>
      </trkpt>
      <trkpt lat="42.46916" lon="0.06724">
        <ele>968.7</ele>
        <time>2016-04-10T07:49:55Z</time>
      </trkpt>
      <trkpt lat="42.46925" lon="0.0671">
        <ele>970.1</ele>
        <time>2016-04-10T07:50:03Z</time>
      </trkpt>
      <trkpt lat="42.46927" lon="0.06708">
        <ele>971.1</ele>
        <time>2016-04-10T07:50:05Z</time>
      </trkpt>
      <trkpt lat="42.46929" lon="0.06706">
        <ele>971.1</ele>
        <time>2016-04-10T07:50:06Z</time>
      </trkpt>
      <trkpt lat="42.4693" lon="0.06705">
        <ele>971.1</ele>
        <time>2016-04-10T07:50:07Z</time>
      </trkpt>
      <trkpt lat="42.46931" lon="0.06704">
        <ele>971.5</ele>
        <time>2016-04-10T07:50:08Z</time>
      </trkpt>
      <trkpt lat="42.46932" lon="0.06704">
        <ele>971.5</ele>
        <time>2016-04-10T07:50:09Z</time>
      </trkpt>
      <trkpt lat="42.46934" lon="0.06703">
        <ele>971.5</ele>
        <time>2016-04-10T07:50:10Z</time>
      </trkpt>
      <trkpt lat="42.46935" lon="0.06702">
        <ele>972</ele>
        <time>2016-04-10T07:50:11Z</time>
      </trkpt>
      <trkpt lat="42.46949" lon="0.06695">
        <ele>973.5</ele>
        <time>2016-04-10T07:50:20Z</time>
      </trkpt>
      <trkpt lat="42.46964" lon="0.06689">
        <ele>975.4</ele>
        <time>2016-04-10T07:50:29Z</time>
      </trkpt>
      <trkpt lat="42.46978" lon="0.06683">
        <ele>976.4</ele>
        <time>2016-04-10T07:50:38Z</time>
      </trkpt>
      <trkpt lat="42.46996" lon="0.0668">
        <ele>978.3</ele>
        <time>2016-04-10T07:50:49Z</time>
      </trkpt>
      <trkpt lat="42.47008" lon="0.06684">
        <ele>979.7</ele>
        <time>2016-04-10T07:50:57Z</time>
      </trkpt>
      <trkpt lat="42.47019" lon="0.0669">
        <ele>980.7</ele>
        <time>2016-04-10T07:51:04Z</time>
      </trkpt>
      <trkpt lat="42.47033" lon="0.06694">
        <ele>983.1</ele>
        <time>2016-04-10T07:51:12Z</time>
      </trkpt>
      <trkpt lat="42.47048" lon="0.06696">
        <ele>984</ele>
        <time>2016-04-10T07:51:20Z</time>
      </trkpt>
      <trkpt lat="42.47068" lon="0.06696">
        <ele>985.5</ele>
        <time>2016-04-10T07:51:30Z</time>
      </trkpt>
      <trkpt lat="42.47088" lon="0.06692">
        <ele>986.9</ele>
        <time>2016-04-10T07:51:40Z</time>
      </trkpt>
      <trkpt lat="42.47107" lon="0.0669">
        <ele>987.4</ele>
        <time>2016-04-10T07:51:49Z</time>
      </trkpt>
      <trkpt lat="42.47128" lon="0.06689">
        <ele>989.3</ele>
        <time>2016-04-10T07:51:59Z</time>
      </trkpt>
      <trkpt lat="42.47143" lon="0.06687">
        <ele>990.8</ele>
        <time>2016-04-10T07:52:07Z</time>
      </trkpt>
      <trkpt lat="42.47159" lon="0.06687">
        <ele>992.2</ele>
        <time>2016-04-10T07:52:15Z</time>
      </trkpt>
      <trkpt lat="42.47174" lon="0.06683">
        <ele>993.2</ele>
        <time>2016-04-10T07:52:23Z</time>
      </trkpt>
      <trkpt lat="42.47192" lon="0.06677">
        <ele>994.1</ele>
        <time>2016-04-10T07:52:32Z</time>
      </trkpt>
      <trkpt lat="42.47217" lon="0.06668">
        <ele>996.5</ele>
        <time>2016-04-10T07:52:44Z</time>
      </trkpt>
      <trkpt lat="42.47232" lon="0.06658">
        <ele>997.5</ele>
        <time>2016-04-10T07:52:52Z</time>
      </trkpt>
      <trkpt lat="42.47252" lon="0.06644">
        <ele>999</ele>
        <time>2016-04-10T07:53:03Z</time>
      </trkpt>
      <trkpt lat="42.47267" lon="0.06634">
        <ele>1000.4</ele>
        <time>2016-04-10T07:53:11Z</time>
      </trkpt>
      <trkpt lat="42.47281" lon="0.06625">
        <ele>1001.8</ele>
        <time>2016-04-10T07:53:19Z</time>
      </trkpt>
      <trkpt lat="42.47299" lon="0.0661">
        <ele>1002.8</ele>
        <time>2016-04-10T07:53:29Z</time>
      </trkpt>
      <trkpt lat="42.47316" lon="0.06593">
        <ele>1003.8</ele>
        <time>2016-04-10T07:53:39Z</time>
      </trkpt>
      <trkpt lat="42.47332" lon="0.0657">
        <ele>1004.2</ele>
        <time>2016-04-10T07:53:50Z</time>
      </trkpt>
      <trkpt lat="42.47348" lon="0.0656">
        <ele>1004.7</ele>
        <time>2016-04-10T07:53:58Z</time>
      </trkpt>
      <trkpt lat="42.4737" lon="0.0655">
        <ele>1006.6</ele>
        <time>2016-04-10T07:54:09Z</time>
      </trkpt>
      <trkpt lat="42.47389" lon="0.06547">
        <ele>1009</ele>
        <time>2016-04-10T07:54:18Z</time>
      </trkpt>
      <trkpt lat="42.47406" lon="0.06546">
        <ele>1010</ele>
        <time>2016-04-10T07:54:27Z</time>
      </trkpt>
      <trkpt lat="42.47423" lon="0.06545">
        <ele>1011.9</ele>
        <time>2016-04-10T07:54:36Z</time>
      </trkpt>
      <trkpt lat="42.47439" lon="0.06544">
        <ele>1013.4</ele>
        <time>2016-04-10T07:54:45Z</time>
      </trkpt>
      <trkpt lat="42.47454" lon="0.0654">
        <ele>1014.3</ele>
        <time>2016-04-10T07:54:53Z</time>
      </trkpt>
      <trkpt lat="42.47471" lon="0.06538">
        <ele>1015.8</ele>
        <time>2016-04-10T07:55:02Z</time>
      </trkpt>
      <trkpt lat="42.47487" lon="0.06541">
        <ele>1016.7</ele>
        <time>2016-04-10T07:55:11Z</time>
      </trkpt>
      <trkpt lat="42.47505" lon="0.06548">
        <ele>1018.7</ele>
        <time>2016-04-10T07:55:21Z</time>
      </trkpt>
      <trkpt lat="42.47519" lon="0.0655">
        <ele>1020.1</ele>
        <time>2016-04-10T07:55:28Z</time>
      </trkpt>
      <trkpt lat="42.47536" lon="0.0655">
        <ele>1021.1</ele>
        <time>2016-04-10T07:55:37Z</time>
      </trkpt>
      <trkpt lat="42.47553" lon="0.06558">
        <ele>1022.5</ele>
        <time>2016-04-10T07:55:46Z</time>
      </trkpt>
      <trkpt lat="42.47574" lon="0.06565">
        <ele>1023.9</ele>
        <time>2016-04-10T07:55:57Z</time>
      </trkpt>
      <trkpt lat="42.4759" lon="0.0656">
        <ele>1024.9</ele>
        <time>2016-04-10T07:56:05Z</time>
      </trkpt>
      <trkpt lat="42.47599" lon="0.06549">
        <ele>1025.4</ele>
        <time>2016-04-10T07:56:11Z</time>
      </trkpt>
      <trkpt lat="42.47609" lon="0.06527">
        <ele>1026.3</ele>
        <time>2016-04-10T07:56:20Z</time>
      </trkpt>
      <trkpt lat="42.47616" lon="0.06507">
        <ele>1027.8</ele>
        <time>2016-04-10T07:56:29Z</time>
      </trkpt>
      <trkpt lat="42.47621" lon="0.06487">
        <ele>1030.2</ele>
        <time>2016-04-10T07:56:37Z</time>
      </trkpt>
      <trkpt lat="42.47624" lon="0.06464">
        <ele>1032.1</ele>
        <time>2016-04-10T07:56:46Z</time>
      </trkpt>
      <trkpt lat="42.4763" lon="0.06444">
        <ele>1034</ele>
        <time>2016-04-10T07:56:55Z</time>
      </trkpt>
      <trkpt lat="42.47634" lon="0.06428">
        <ele>1035.5</ele>
        <time>2016-04-10T07:57:03Z</time>
      </trkpt>
      <trkpt lat="42.47641" lon="0.06411">
        <ele>1037.4</ele>
        <time>2016-04-10T07:57:11Z</time>
      </trkpt>
      <trkpt lat="42.47651" lon="0.06393">
        <ele>1038.8</ele>
        <time>2016-04-10T07:57:20Z</time>
      </trkpt>
      <trkpt lat="42.4766" lon="0.0637">
        <ele>1040.8</ele>
        <time>2016-04-10T07:57:31Z</time>
      </trkpt>
      <trkpt lat="42.47667" lon="0.06352">
        <ele>1041.7</ele>
        <time>2016-04-10T07:57:40Z</time>
      </trkpt>
      <trkpt lat="42.47675" lon="0.06336">
        <ele>1043.7</ele>
        <time>2016-04-10T07:57:49Z</time>
      </trkpt>
      <trkpt lat="42.47682" lon="0.06322">
        <ele>1044.1</ele>
        <time>2016-04-10T07:57:56Z</time>
      </trkpt>
      <trkpt lat="42.4769" lon="0.06305">
        <ele>1045.6</ele>
        <time>2016-04-10T07:58:04Z</time>
      </trkpt>
      <trkpt lat="42.47694" lon="0.06287">
        <ele>1048</ele>
        <time>2016-04-10T07:58:13Z</time>
      </trkpt>
      <trkpt lat="42.47704" lon="0.06267">
        <ele>1049.4</ele>
        <time>2016-04-10T07:58:23Z</time>
      </trkpt>
      <trkpt lat="42.47712" lon="0.06251">
        <ele>1051.3</ele>
        <time>2016-04-10T07:58:32Z</time>
      </trkpt>
      <trkpt lat="42.47724" lon="0.06234">
        <ele>1052.8</ele>
        <time>2016-04-10T07:58:42Z</time>
      </trkpt>
      <trkpt lat="42.47737" lon="0.06222">
        <ele>1055.2</ele>
        <time>2016-04-10T07:58:52Z</time>
      </trkpt>
      <trkpt lat="42.47748" lon="0.06216">
        <ele>1057.1</ele>
        <time>2016-04-10T07:59:00Z</time>
      </trkpt>
      <trkpt lat="42.4775" lon="0.06215">
        <ele>1057.1</ele>
        <time>2016-04-10T07:59:01Z</time>
      </trkpt>
      <trkpt lat="42.47751" lon="0.06214">
        <ele>1057.1</ele>
        <time>2016-04-10T07:59:02Z</time>
      </trkpt>
      <trkpt lat="42.47753" lon="0.06213">
        <ele>1057.1</ele>
        <time>2016-04-10T07:59:03Z</time>
      </trkpt>
      <trkpt lat="42.47754" lon="0.06212">
        <ele>1057.1</ele>
        <time>2016-04-10T07:59:04Z</time>
      </trkpt>
      <trkpt lat="42.47756" lon="0.06211">
        <ele>1057.6</ele>
        <time>2016-04-10T07:59:05Z</time>
      </trkpt>
      <trkpt lat="42.47757" lon="0.0621">
        <ele>1057.6</ele>
        <time>2016-04-10T07:59:06Z</time>
      </trkpt>
      <trkpt lat="42.47768" lon="0.06199">
        <ele>1058.1</ele>
        <time>2016-04-10T07:59:13Z</time>
      </trkpt>
      <trkpt lat="42.47778" lon="0.06188">
        <ele>1059.5</ele>
        <time>2016-04-10T07:59:21Z</time>
      </trkpt>
      <trkpt lat="42.47792" lon="0.06173">
        <ele>1061.9</ele>
        <time>2016-04-10T07:59:32Z</time>
      </trkpt>
      <trkpt lat="42.47802" lon="0.06161">
        <ele>1063.4</ele>
        <time>2016-04-10T07:59:40Z</time>
      </trkpt>
      <trkpt lat="42.47807" lon="0.06156">
        <ele>1064.3</ele>
        <time>2016-04-10T07:59:44Z</time>
      </trkpt>
      <trkpt lat="42.47808" lon="0.06155">
        <ele>1064.3</ele>
        <time>2016-04-10T07:59:45Z</time>
      </trkpt>
      <trkpt lat="42.47809" lon="0.06154">
        <ele>1064.3</ele>
        <time>2016-04-10T07:59:46Z</time>
      </trkpt>
      <trkpt lat="42.47811" lon="0.06152">
        <ele>1065.3</ele>
        <time>2016-04-10T07:59:47Z</time>
      </trkpt>
      <trkpt lat="42.47812" lon="0.06151">
        <ele>1065.3</ele>
        <time>2016-04-10T07:59:48Z</time>
      </trkpt>
      <trkpt lat="42.47824" lon="0.0614">
        <ele>1066.7</ele>
        <time>2016-04-10T07:59:56Z</time>
      </trkpt>
      <trkpt lat="42.47841" lon="0.06128">
        <ele>1069.1</ele>
        <time>2016-04-10T08:00:08Z</time>
      </trkpt>
      <trkpt lat="42.47844" lon="0.06122">
        <ele>1083.9</ele>
        <time>1970-01-01T00:00:00Z</time>
      </trkpt>
      <trkpt lat="42.47829" lon="0.06084">
        <ele>1079.3</ele>
        <time>1970-01-01T00:00:00Z</time>
      </trkpt>
      <trkpt lat="42.47804" lon="0.06062">
        <ele>1074.6</ele>
        <time>1970-01-01T00:00:00Z</time>
      </trkpt>
      <trkpt lat="42.47778" lon="0.06054">
        <ele>1069.9</ele>
        <time>1970-01-01T00:00:00Z</time>
      </trkpt>
      <trkpt lat="42.4776" lon="0.06046">
        <ele>1066.6</ele>
        <time>1970-01-01T00:00:00Z</time>
      </trkpt>
      <trkpt lat="42.47746" lon="0.06039">
        <ele>1064</ele>
        <time>1970-01-01T00:00:00Z</time>
      </trkpt>
      <trkpt lat="42.47726" lon="0.06043">
        <ele>1060.3</ele>
        <time>1970-01-01T00:00:00Z</time>
      </trkpt>
      <trkpt lat="42.47734" lon="0.06011">
        <ele>1061.5</ele>
        <time>1970-01-01T00:00:00Z</time>
      </trkpt>
      <trkpt lat="42.47752" lon="0.05996">
        <ele>1064.1</ele>
        <time>1970-01-01T00:00:00Z</time>
      </trkpt>
      <trkpt lat="42.4777" lon="0.05994">
        <ele>1066.1</ele>
        <time>1970-01-01T00:00:00Z</time>
      </trkpt>
      <trkpt lat="42.47777" lon="0.05974">
        <ele>1063.7</ele>
        <time>1970-01-01T00:00:00Z</time>
      </trkpt>
      <trkpt lat="42.47768" lon="0.05954">
        <ele>1060.3</ele>
        <time>1970-01-01T00:00:00Z</time>
      </trkpt>
      <trkpt lat="42.47754" lon="0.05944">
        <ele>1056.9</ele>
        <time>1970-01-01T00:00:00Z</time>
      </trkpt>
      <trkpt lat="42.47758" lon="0.05919">
        <ele>1055.2</ele>
        <time>1970-01-01T00:00:00Z</time>
      </trkpt>
      <trkpt lat="42.47751" lon="0.05904">
        <ele>1053.4</ele>
        <time>1970-01-01T00:00:00Z</time>
      </trkpt>
      <trkpt lat="42.4775" lon="0.05922">
        <ele>1053.6</ele>
        <time>1970-01-01T00:00:00Z</time>
      </trkpt>
      <trkpt lat="42.47743" lon="0.05929">
        <ele>1053.1</ele>
        <time>1970-01-01T00:00:00Z</time>
      </trkpt>
      <trkpt lat="42.47741" lon="0.05913">
        <ele>1051</ele>
        <time>1970-01-01T00:00:00Z</time>
      </trkpt>
      <trkpt lat="42.47731" lon="0.05927">
        <ele>1049.5</ele>
        <time>1970-01-01T00:00:00Z</time>
      </trkpt>
      <trkpt lat="42.47727" lon="0.05904">
        <ele>1045.7</ele>
        <time>1970-01-01T00:00:00Z</time>
      </trkpt>
      <trkpt lat="42.47723" lon="0.05862">
        <ele>1040.7</ele>
        <time>1970-01-01T00:00:00Z</time>
      </trkpt>
      <trkpt lat="42.47723" lon="0.05835">
        <ele>1035.5</ele>
        <time>1970-01-01T00:00:00Z</time>
      </trkpt>
      <trkpt lat="42.4776" lon="0.05793">
        <ele>1036.5</ele>
        <time>1970-01-01T00:00:00Z</time>
      </trkpt>
      <trkpt lat="42.47771" lon="0.05771">
        <ele>1031</ele>
        <time>1970-01-01T00:00:00Z</time>
      </trkpt>
      <trkpt lat="42.47782" lon="0.05714">
        <ele>1014.2</ele>
        <time>1970-01-01T00:00:00Z</time>
      </trkpt>
      <trkpt lat="42.47813" lon="0.05661">
        <ele>1008.1</ele>
        <time>1970-01-01T00:00:00Z</time>
      </trkpt>
      <trkpt lat="42.47832" lon="0.05637">
        <ele>1000</ele>
        <time>1970-01-01T00:00:00Z</time>
      </trkpt>
      <trkpt lat="42.47845" lon="0.05596">
        <ele>986.3</ele>
        <time>1970-01-01T00:00:00Z</time>
      </trkpt>
      <trkpt lat="42.47855" lon="0.05569">
        <ele>979.9</ele>
        <time>1970-01-01T00:00:00Z</time>
      </trkpt>
      <trkpt lat="42.47892" lon="0.05581">
        <ele>993.4</ele>
        <time>1970-01-01T00:00:00Z</time>
      </trkpt>
      <trkpt lat="42.47906" lon="0.05578">
        <ele>994.8</ele>
        <time>1970-01-01T00:00:00Z</time>
      </trkpt>
      <trkpt lat="42.47926" lon="0.05546">
        <ele>985.8</ele>
        <time>1970-01-01T00:00:00Z</time>
      </trkpt>
      <trkpt lat="42.47958" lon="0.05536">
        <ele>990.1</ele>
        <time>1970-01-01T00:00:00Z</time>
      </trkpt>
      <trkpt lat="42.47973" lon="0.05506">
        <ele>980.9</ele>
        <time>1970-01-01T00:00:00Z</time>
      </trkpt>
      <trkpt lat="42.47987" lon="0.05467">
        <ele>971.9</ele>
        <time>1970-01-01T00:00:00Z</time>
      </trkpt>
      <trkpt lat="42.48006" lon="0.05438">
        <ele>966.1</ele>
        <time>1970-01-01T00:00:00Z</time>
      </trkpt>
      <trkpt lat="42.48012" lon="0.05417">
        <ele>954.2</ele>
        <time>1970-01-01T00:00:00Z</time>
      </trkpt>
      <trkpt lat="42.48027" lon="0.05403">
        <ele>947.4</ele>
        <time>1970-01-01T00:00:00Z</time>
      </trkpt>
      <trkpt lat="42.48048" lon="0.05406">
        <ele>946.6</ele>
        <time>1970-01-01T00:00:00Z</time>
      </trkpt>
      <trkpt lat="42.48072" lon="0.05405">
        <ele>939</ele>
        <time>1970-01-01T00:00:00Z</time>
      </trkpt>
      <trkpt lat="42.48092" lon="0.05403">
        <ele>930.6</ele>
        <time>1970-01-01T00:00:00Z</time>
      </trkpt>
      <trkpt lat="42.4811" lon="0.05412">
        <ele>928.1</ele>
        <time>1970-01-01T00:00:00Z</time>
      </trkpt>
      <trkpt lat="42.48115" lon="0.05432">
        <ele>936.5</ele>
        <time>1970-01-01T00:00:00Z</time>
      </trkpt>
      <trkpt lat="42.48126" lon="0.0544">
        <ele>938.5</ele>
        <time>1970-01-01T00:00:00Z</time>
      </trkpt>
      <trkpt lat="42.48146" lon="0.0544">
        <ele>937</ele>
        <time>1970-01-01T00:00:00Z</time>
      </trkpt>
      <trkpt lat="42.48154" lon="0.05441">
        <ele>939.2</ele>
        <time>1970-01-01T00:00:00Z</time>
      </trkpt>
      <trkpt lat="42.48173" lon="0.05437">
        <ele>940.7</ele>
        <time>1970-01-01T00:00:00Z</time>
      </trkpt>
      <trkpt lat="42.48197" lon="0.05422">
        <ele>939.7</ele>
        <time>1970-01-01T00:00:00Z</time>
      </trkpt>
      <trkpt lat="42.48208" lon="0.05405">
        <ele>933.8</ele>
        <time>1970-01-01T00:00:00Z</time>
      </trkpt>
      <trkpt lat="42.48209" lon="0.05379">
        <ele>921.8</ele>
        <time>1970-01-01T00:00:00Z</time>
      </trkpt>
      <trkpt lat="42.48209" lon="0.05379">
        <ele>921.8</ele>
        <time>1970-01-01T00:00:00Z</time>
      </trkpt>
      <trkpt lat="42.48233" lon="0.05376">
        <ele>932.5</ele>
        <time>1970-01-01T00:00:00Z</time>
      </trkpt>
      <trkpt lat="42.48258" lon="0.05386">
        <ele>947.6</ele>
        <time>1970-01-01T00:00:00Z</time>
      </trkpt>
      <trkpt lat="42.48275" lon="0.05388">
        <ele>954</ele>
        <time>1970-01-01T00:00:00Z</time>
      </trkpt>
      <trkpt lat="42.48286" lon="0.05389">
        <ele>955.8</ele>
        <time>1970-01-01T00:00:00Z</time>
      </trkpt>
      <trkpt lat="42.48298" lon="0.05377">
        <ele>954.6</ele>
        <time>1970-01-01T00:00:00Z</time>
      </trkpt>
      <trkpt lat="42.48306" lon="0.05366">
        <ele>954.3</ele>
        <time>1970-01-01T00:00:00Z</time>
      </trkpt>
      <trkpt lat="42.4831" lon="0.05357">
        <ele>954.3</ele>
        <time>1970-01-01T00:00:00Z</time>
      </trkpt>
      <trkpt lat="42.48306" lon="0.05336">
        <ele>951.3</ele>
        <time>1970-01-01T00:00:00Z</time>
      </trkpt>
      <trkpt lat="42.48303" lon="0.05325">
        <ele>951</ele>
        <time>1970-01-01T00:00:00Z</time>
      </trkpt>
      <trkpt lat="42.48299" lon="0.05312">
        <ele>949.7</ele>
        <time>1970-01-01T00:00:00Z</time>
      </trkpt>
      <trkpt lat="42.48299" lon="0.05304">
        <ele>950.7</ele>
        <time>1970-01-01T00:00:00Z</time>
      </trkpt>
      <trkpt lat="42.4831" lon="0.05295">
        <ele>958.1</ele>
        <time>1970-01-01T00:00:00Z</time>
      </trkpt>
      <trkpt lat="42.4831" lon="0.05285">
        <ele>959.1</ele>
        <time>1970-01-01T00:00:00Z</time>
      </trkpt>
      <trkpt lat="42.48319" lon="0.05274">
        <ele>965.9</ele>
        <time>1970-01-01T00:00:00Z</time>
      </trkpt>
      <trkpt lat="42.4832" lon="0.05268">
        <ele>966.9</ele>
        <time>1970-01-01T00:00:00Z</time>
      </trkpt>
      <trkpt lat="42.48325" lon="0.05269">
        <ele>969.8</ele>
        <time>1970-01-01T00:00:00Z</time>
      </trkpt>
      <trkpt lat="42.48329" lon="0.05261">
        <ele>972.5</ele>
        <time>1970-01-01T00:00:00Z</time>
      </trkpt>
      <trkpt lat="42.48332" lon="0.05248">
        <ele>973.5</ele>
        <time>1970-01-01T00:00:00Z</time>
      </trkpt>
      <trkpt lat="42.48328" lon="0.05237">
        <ele>969.5</ele>
        <time>1970-01-01T00:00:00Z</time>
      </trkpt>
      <trkpt lat="42.48337" lon="0.05231">
        <ele>973</ele>
        <time>1970-01-01T00:00:00Z</time>
      </trkpt>
      <trkpt lat="42.48336" lon="0.05226">
        <ele>971.7</ele>
        <time>1970-01-01T00:00:00Z</time>
      </trkpt>
      <trkpt lat="42.48326" lon="0.05207">
        <ele>960.5</ele>
        <time>1970-01-01T00:00:00Z</time>
      </trkpt>
      <trkpt lat="42.48309" lon="0.05159">
        <ele>949.4</ele>
        <time>1970-01-01T00:00:00Z</time>
      </trkpt>
      <trkpt lat="42.48312" lon="0.05115">
        <ele>960.5</ele>
        <time>1970-01-01T00:00:00Z</time>
      </trkpt>
      <trkpt lat="42.48318" lon="0.05068">
        <ele>973.6</ele>
        <time>1970-01-01T00:00:00Z</time>
      </trkpt>
      <trkpt lat="42.48309" lon="0.05032">
        <ele>977.5</ele>
        <time>1970-01-01T00:00:00Z</time>
      </trkpt>
      <trkpt lat="42.48292" lon="0.04983">
        <ele>981.1</ele>
        <time>1970-01-01T00:00:00Z</time>
      </trkpt>
      <trkpt lat="42.48283" lon="0.0491">
        <ele>990</ele>
        <time>1970-01-01T00:00:00Z</time>
      </trkpt>
      <trkpt lat="42.48278" lon="0.04883">
        <ele>991.2</ele>
        <time>1970-01-01T00:00:00Z</time>
      </trkpt>
      <trkpt lat="42.48286" lon="0.04854">
        <ele>998.9</ele>
        <time>1970-01-01T00:00:00Z</time>
      </trkpt>
      <trkpt lat="42.48297" lon="0.04831">
        <ele>1006.8</ele>
        <time>1970-01-01T00:00:00Z</time>
      </trkpt>
      <trkpt lat="42.48306" lon="0.04805">
        <ele>1013.8</ele>
        <time>1970-01-01T00:00:00Z</time>
      </trkpt>
      <trkpt lat="42.48319" lon="0.04788">
        <ele>1022.6</ele>
        <time>1970-01-01T00:00:00Z</time>
      </trkpt>
      <trkpt lat="42.48323" lon="0.04775">
        <ele>1025.3</ele>
        <time>1970-01-01T00:00:00Z</time>
      </trkpt>
      <trkpt lat="42.48312" lon="0.04758">
        <ele>1019.8</ele>
        <time>1970-01-01T00:00:00Z</time>
      </trkpt>
      <trkpt lat="42.48312" lon="0.04758">
        <ele>1019.8</ele>
        <time>1970-01-01T00:00:00Z</time>
      </trkpt>
      <trkpt lat="42.48306" lon="0.04753">
        <ele>1017.2</ele>
        <time>1970-01-01T00:00:00Z</time>
      </trkpt>
      <trkpt lat="42.48294" lon="0.04763">
        <ele>1011.2</ele>
        <time>1970-01-01T00:00:00Z</time>
      </trkpt>
      <trkpt lat="42.48271" lon="0.04765">
        <ele>1002</ele>
        <time>1970-01-01T00:00:00Z</time>
      </trkpt>
      <trkpt lat="42.48252" lon="0.04761">
        <ele>1002.1</ele>
        <time>1970-01-01T00:00:00Z</time>
      </trkpt>
      <trkpt lat="42.48231" lon="0.04785">
        <ele>997.6</ele>
        <time>1970-01-01T00:00:00Z</time>
      </trkpt>
      <trkpt lat="42.48204" lon="0.04822">
        <ele>990.4</ele>
        <time>1970-01-01T00:00:00Z</time>
      </trkpt>
      <trkpt lat="42.48193" lon="0.04836">
        <ele>989.4</ele>
        <time>1970-01-01T00:00:00Z</time>
      </trkpt>
      <trkpt lat="42.48177" lon="0.0485">
        <ele>988.9</ele>
        <time>1970-01-01T00:00:00Z</time>
      </trkpt>
      <trkpt lat="42.48168" lon="0.04855">
        <ele>988.9</ele>
        <time>1970-01-01T00:00:00Z</time>
      </trkpt>
      <trkpt lat="42.48161" lon="0.04864">
        <ele>987.8</ele>
        <time>1970-01-01T00:00:00Z</time>
      </trkpt>
      <trkpt lat="42.48156" lon="0.04869">
        <ele>987.2</ele>
        <time>1970-01-01T00:00:00Z</time>
      </trkpt>
      <trkpt lat="42.48145" lon="0.04886">
        <ele>985.2</ele>
        <time>1970-01-01T00:00:00Z</time>
      </trkpt>
      <trkpt lat="42.48129" lon="0.04903">
        <ele>994.8</ele>
        <time>1970-01-01T00:00:00Z</time>
      </trkpt>
      <trkpt lat="42.48116" lon="0.04925">
        <ele>995.7</ele>
        <time>1970-01-01T00:00:00Z</time>
      </trkpt>
      <trkpt lat="42.48116" lon="0.04925">
        <ele>995.7</ele>
        <time>1970-01-01T00:00:00Z</time>
      </trkpt>
      <trkpt lat="42.48097" lon="0.04925">
        <ele>995.7</ele>
        <time>1970-01-01T00:00:00Z</time>
      </trkpt>
      <trkpt lat="42.48075" lon="0.04912">
        <ele>994.3</ele>
        <time>1970-01-01T00:00:00Z</time>
      </trkpt>
      <trkpt lat="42.48056" lon="0.04874">
        <ele>1003.1</ele>
        <time>1970-01-01T00:00:00Z</time>
      </trkpt>
      <trkpt lat="42.4804" lon="0.04864">
        <ele>1003.7</ele>
        <time>1970-01-01T00:00:00Z</time>
      </trkpt>
      <trkpt lat="42.48013" lon="0.04869">
        <ele>999.2</ele>
        <time>1970-01-01T00:00:00Z</time>
      </trkpt>
      <trkpt lat="42.4797" lon="0.04897">
        <ele>991</ele>
        <time>1970-01-01T00:00:00Z</time>
      </trkpt>
      <trkpt lat="42.47932" lon="0.04873">
        <ele>1003.1</ele>
        <time>1970-01-01T00:00:00Z</time>
      </trkpt>
      <trkpt lat="42.47894" lon="0.04858">
        <ele>1009.6</ele>
        <time>1970-01-01T00:00:00Z</time>
      </trkpt>
      <trkpt lat="42.47836" lon="0.04811">
        <ele>1021.8</ele>
        <time>1970-01-01T00:00:00Z</time>
      </trkpt>
      <trkpt lat="42.47823" lon="0.04801">
        <ele>1023.7</ele>
        <time>1970-01-01T00:00:00Z</time>
      </trkpt>
      <trkpt lat="42.47823" lon="0.04801">
        <ele>1023.7</ele>
        <time>1970-01-01T00:00:00Z</time>
      </trkpt>
      <trkpt lat="42.47832" lon="0.04789">
        <ele>1027.4</ele>
        <time>1970-01-01T00:00:00Z</time>
      </trkpt>
      <trkpt lat="42.47859" lon="0.0479">
        <ele>1028.3</ele>
        <time>1970-01-01T00:00:00Z</time>
      </trkpt>
      <trkpt lat="42.47885" lon="0.04778">
        <ele>1032.8</ele>
        <time>1970-01-01T00:00:00Z</time>
      </trkpt>
      <trkpt lat="42.47907" lon="0.0478">
        <ele>1034.4</ele>
        <time>1970-01-01T00:00:00Z</time>
      </trkpt>
      <trkpt lat="42.47987" lon="0.04791">
        <ele>1025.7</ele>
        <time>1970-01-01T00:00:00Z</time>
      </trkpt>
      <trkpt lat="42.48024" lon="0.0478">
        <ele>1026.2</ele>
        <time>1970-01-01T00:00:00Z</time>
      </trkpt>
      <trkpt lat="42.48036" lon="0.04761">
        <ele>1033.1</ele>
        <time>1970-01-01T00:00:00Z</time>
      </trkpt>
      <trkpt lat="42.48046" lon="0.04752">
        <ele>1036.7</ele>
        <time>1970-01-01T00:00:00Z</time>
      </trkpt>
      <trkpt lat="42.48064" lon="0.04755">
        <ele>1038.7</ele>
        <time>1970-01-01T00:00:00Z</time>
      </trkpt>
      <trkpt lat="42.48059" lon="0.04719">
        <ele>1046.5</ele>
        <time>1970-01-01T00:00:00Z</time>
      </trkpt>
      <trkpt lat="42.48056" lon="0.04702">
        <ele>1049.3</ele>
        <time>1970-01-01T00:00:00Z</time>
      </trkpt>
      <trkpt lat="42.48063" lon="0.04685">
        <ele>1053.7</ele>
        <time>1970-01-01T00:00:00Z</time>
      </trkpt>
      <trkpt lat="42.48085" lon="0.04664">
        <ele>1061.3</ele>
        <time>1970-01-01T00:00:00Z</time>
      </trkpt>
      <trkpt lat="42.48097" lon="0.04651">
        <ele>1064</ele>
        <time>1970-01-01T00:00:00Z</time>
      </trkpt>
      <trkpt lat="42.48099" lon="0.04611">
        <ele>1067.1</ele>
        <time>1970-01-01T00:00:00Z</time>
      </trkpt>
      <trkpt lat="42.48097" lon="0.0458">
        <ele>1071.9</ele>
        <time>1970-01-01T00:00:00Z</time>
      </trkpt>
      <trkpt lat="42.48092" lon="0.04562">
        <ele>1075.9</ele>
        <time>1970-01-01T00:00:00Z</time>
      </trkpt>
      <trkpt lat="42.48088" lon="0.04561">
        <ele>1076.5</ele>
        <time>1970-01-01T00:00:00Z</time>
      </trkpt>
      <trkpt lat="42.48094" lon="0.04547">
        <ele>1078.4</ele>
        <time>1970-01-01T00:00:00Z</time>
      </trkpt>
      <trkpt lat="42.48093" lon="0.04533">
        <ele>1081.6</ele>
        <time>1970-01-01T00:00:00Z</time>
      </trkpt>
      <trkpt lat="42.48094" lon="0.04506">
        <ele>1087.6</ele>
        <time>1970-01-01T00:00:00Z</time>
      </trkpt>
      <trkpt lat="42.48092" lon="0.04483">
        <ele>1093.8</ele>
        <time>1970-01-01T00:00:00Z</time>
      </trkpt>
      <trkpt lat="42.48085" lon="0.04466">
        <ele>1098.8</ele>
        <time>1970-01-01T00:00:00Z</time>
      </trkpt>
      <trkpt lat="42.48084" lon="0.04448">
        <ele>1103.6</ele>
        <time>1970-01-01T00:00:00Z</time>
      </trkpt>
      <trkpt lat="42.4808" lon="0.04436">
        <ele>1107</ele>
        <time>1970-01-01T00:00:00Z</time>
      </trkpt>
      <trkpt lat="42.48078" lon="0.04408">
        <ele>1115</ele>
        <time>1970-01-01T00:00:00Z</time>
      </trkpt>
      <trkpt lat="42.48068" lon="0.04344">
        <ele>1133.8</ele>
        <time>1970-01-01T00:00:00Z</time>
      </trkpt>
      <trkpt lat="42.48071" lon="0.04313">
        <ele>1142.4</ele>
        <time>1970-01-01T00:00:00Z</time>
      </trkpt>
      <trkpt lat="42.48063" lon="0.043">
        <ele>1146.5</ele>
        <time>1970-01-01T00:00:00Z</time>
      </trkpt>
      <trkpt lat="42.48066" lon="0.04286">
        <ele>1150</ele>
        <time>1970-01-01T00:00:00Z</time>
      </trkpt>
      <trkpt lat="42.48064" lon="0.0423">
        <ele>1165.7</ele>
        <time>1970-01-01T00:00:00Z</time>
      </trkpt>
      <trkpt lat="42.48058" lon="0.04213">
        <ele>1170.8</ele>
        <time>1970-01-01T00:00:00Z</time>
      </trkpt>
      <trkpt lat="42.48061" lon="0.04197">
        <ele>1174.9</ele>
        <time>1970-01-01T00:00:00Z</time>
      </trkpt>
      <trkpt lat="42.48056" lon="0.0417">
        <ele>1182.4</ele>
        <time>1970-01-01T00:00:00Z</time>
      </trkpt>
      <trkpt lat="42.48057" lon="0.04137">
        <ele>1189.9</ele>
        <time>1970-01-01T00:00:00Z</time>
      </trkpt>
      <trkpt lat="42.48056" lon="0.04114">
        <ele>1194.8</ele>
        <time>1970-01-01T00:00:00Z</time>
      </trkpt>
      <trkpt lat="42.48058" lon="0.04096">
        <ele>1198.8</ele>
        <time>1970-01-01T00:00:00Z</time>
      </trkpt>
      <trkpt lat="42.48053" lon="0.04077">
        <ele>1203.3</ele>
        <time>1970-01-01T00:00:00Z</time>
      </trkpt>
      <trkpt lat="42.48052" lon="0.04063">
        <ele>1206.4</ele>
        <time>1970-01-01T00:00:00Z</time>
      </trkpt>
      <trkpt lat="42.48051" lon="0.04053">
        <ele>1208.7</ele>
        <time>1970-01-01T00:00:00Z</time>
      </trkpt>
      <trkpt lat="42.48045" lon="0.0404">
        <ele>1211.7</ele>
        <time>1970-01-01T00:00:00Z</time>
      </trkpt>
      <trkpt lat="42.48046" lon="0.04024">
        <ele>1214.8</ele>
        <time>1970-01-01T00:00:00Z</time>
      </trkpt>
      <trkpt lat="42.48036" lon="0.04012">
        <ele>1218.3</ele>
        <time>1970-01-01T00:00:00Z</time>
      </trkpt>
      <trkpt lat="42.48034" lon="0.03989">
        <ele>1223.3</ele>
        <time>1970-01-01T00:00:00Z</time>
      </trkpt>
      <trkpt lat="42.48027" lon="0.03973">
        <ele>1227.3</ele>
        <time>1970-01-01T00:00:00Z</time>
      </trkpt>
      <trkpt lat="42.48028" lon="0.03951">
        <ele>1231.9</ele>
        <time>1970-01-01T00:00:00Z</time>
      </trkpt>
      <trkpt lat="42.48032" lon="0.03941">
        <ele>1233.6</ele>
        <time>1970-01-01T00:00:00Z</time>
      </trkpt>
      <trkpt lat="42.48029" lon="0.03928">
        <ele>1236.6</ele>
        <time>1970-01-01T00:00:00Z</time>
      </trkpt>
      <trkpt lat="42.48031" lon="0.03914">
        <ele>1239.6</ele>
        <time>1970-01-01T00:00:00Z</time>
      </trkpt>
      <trkpt lat="42.48031" lon="0.03889">
        <ele>1245.6</ele>
        <time>1970-01-01T00:00:00Z</time>
      </trkpt>
      <trkpt lat="42.48027" lon="0.03849">
        <ele>1255.5</ele>
        <time>1970-01-01T00:00:00Z</time>
      </trkpt>
      <trkpt lat="42.48028" lon="0.03818">
        <ele>1263.2</ele>
        <time>1970-01-01T00:00:00Z</time>
      </trkpt>
      <trkpt lat="42.48019" lon="0.03788">
        <ele>1270.7</ele>
        <time>1970-01-01T00:00:00Z</time>
      </trkpt>
      <trkpt lat="42.48009" lon="0.03765">
        <ele>1276.8</ele>
        <time>1970-01-01T00:00:00Z</time>
      </trkpt>
      <trkpt lat="42.48008" lon="0.03752">
        <ele>1279.9</ele>
        <time>1970-01-01T00:00:00Z</time>
      </trkpt>
      <trkpt lat="42.48011" lon="0.03739">
        <ele>1283.2</ele>
        <time>1970-01-01T00:00:00Z</time>
      </trkpt>
      <trkpt lat="42.48008" lon="0.03722">
        <ele>1287.4</ele>
        <time>1970-01-01T00:00:00Z</time>
      </trkpt>
      <trkpt lat="42.4801" lon="0.03697">
        <ele>1293.1</ele>
        <time>1970-01-01T00:00:00Z</time>
      </trkpt>
      <trkpt lat="42.48019" lon="0.03676">
        <ele>1298.1</ele>
        <time>1970-01-01T00:00:00Z</time>
      </trkpt>
      <trkpt lat="42.48007" lon="0.03633">
        <ele>1307.9</ele>
        <time>1970-01-01T00:00:00Z</time>
      </trkpt>
      <trkpt lat="42.48007" lon="0.0362">
        <ele>1310.5</ele>
        <time>1970-01-01T00:00:00Z</time>
      </trkpt>
      <trkpt lat="42.48004" lon="0.03607">
        <ele>1313.4</ele>
        <time>1970-01-01T00:00:00Z</time>
      </trkpt>
      <trkpt lat="42.48005" lon="0.03586">
        <ele>1317.9</ele>
        <time>1970-01-01T00:00:00Z</time>
      </trkpt>
      <trkpt lat="42.48007" lon="0.03572">
        <ele>1320.6</ele>
        <time>1970-01-01T00:00:00Z</time>
      </trkpt>
      <trkpt lat="42.48008" lon="0.03565">
        <ele>1322.2</ele>
        <time>1970-01-01T00:00:00Z</time>
      </trkpt>
      <trkpt lat="42.48007" lon="0.03557">
        <ele>1324</ele>
        <time>1970-01-01T00:00:00Z</time>
      </trkpt>
      <trkpt lat="42.48018" lon="0.03534">
        <ele>1328.1</ele>
        <time>1970-01-01T00:00:00Z</time>
      </trkpt>
      <trkpt lat="42.4803" lon="0.03486">
        <ele>1337.4</ele>
        <time>1970-01-01T00:00:00Z</time>
      </trkpt>
      <trkpt lat="42.48041" lon="0.03426">
        <ele>1350.8</ele>
        <time>1970-01-01T00:00:00Z</time>
      </trkpt>
      <trkpt lat="42.48058" lon="0.03391">
        <ele>1357.3</ele>
        <time>1970-01-01T00:00:00Z</time>
      </trkpt>
      <trkpt lat="42.48062" lon="0.03377">
        <ele>1359.8</ele>
        <time>1970-01-01T00:00:00Z</time>
      </trkpt>
      <trkpt lat="42.48061" lon="0.03345">
        <ele>1366.6</ele>
        <time>1970-01-01T00:00:00Z</time>
      </trkpt>
      <trkpt lat="42.48056" lon="0.03319">
        <ele>1372.4</ele>
        <time>1970-01-01T00:00:00Z</time>
      </trkpt>
      <trkpt lat="42.48061" lon="0.03285">
        <ele>1380.5</ele>
        <time>1970-01-01T00:00:00Z</time>
      </trkpt>
      <trkpt lat="42.48065" lon="0.03276">
        <ele>1382.6</ele>
        <time>1970-01-01T00:00:00Z</time>
      </trkpt>
      <trkpt lat="42.48068" lon="0.03262">
        <ele>1386.4</ele>
        <time>1970-01-01T00:00:00Z</time>
      </trkpt>
      <trkpt lat="42.48064" lon="0.03254">
        <ele>1388.7</ele>
        <time>1970-01-01T00:00:00Z</time>
      </trkpt>
      <trkpt lat="42.48066" lon="0.03248">
        <ele>1390.1</ele>
        <time>1970-01-01T00:00:00Z</time>
      </trkpt>
      <trkpt lat="42.48064" lon="0.03238">
        <ele>1393</ele>
        <time>1970-01-01T00:00:00Z</time>
      </trkpt>
      <trkpt lat="42.48067" lon="0.0323">
        <ele>1395</ele>
        <time>1970-01-01T00:00:00Z</time>
      </trkpt>
      <trkpt lat="42.4806" lon="0.03207">
        <ele>1401.1</ele>
        <time>1970-01-01T00:00:00Z</time>
      </trkpt>
      <trkpt lat="42.48072" lon="0.03188">
        <ele>1406.3</ele>
        <time>1970-01-01T00:00:00Z</time>
      </trkpt>
      <trkpt lat="42.48077" lon="0.03179">
        <ele>1408.8</ele>
        <time>1970-01-01T00:00:00Z</time>
      </trkpt>
      <trkpt lat="42.48076" lon="0.03168">
        <ele>1411.9</ele>
        <time>1970-01-01T00:00:00Z</time>
      </trkpt>
      <trkpt lat="42.48091" lon="0.03144">
        <ele>1418.6</ele>
        <time>1970-01-01T00:00:00Z</time>
      </trkpt>
      <trkpt lat="42.48105" lon="0.03116">
        <ele>1426.4</ele>
        <time>1970-01-01T00:00:00Z</time>
      </trkpt>
      <trkpt lat="42.48119" lon="0.03088">
        <ele>1434.3</ele>
        <time>1970-01-01T00:00:00Z</time>
      </trkpt>
      <trkpt lat="42.48127" lon="0.03063">
        <ele>1441.4</ele>
        <time>1970-01-01T00:00:00Z</time>
      </trkpt>
      <trkpt lat="42.48135" lon="0.03044">
        <ele>1447.3</ele>
        <time>1970-01-01T00:00:00Z</time>
      </trkpt>
      <trkpt lat="42.48143" lon="0.03035">
        <ele>1450.2</ele>
        <time>1970-01-01T00:00:00Z</time>
      </trkpt>
      <trkpt lat="42.48146" lon="0.03029">
        <ele>1452.2</ele>
        <time>1970-01-01T00:00:00Z</time>
      </trkpt>
      <trkpt lat="42.48144" lon="0.03023">
        <ele>1454.1</ele>
        <time>1970-01-01T00:00:00Z</time>
      </trkpt>
      <trkpt lat="42.48147" lon="0.03017">
        <ele>1455.9</ele>
        <time>1970-01-01T00:00:00Z</time>
      </trkpt>
      <trkpt lat="42.48154" lon="0.03015">
        <ele>1456.7</ele>
        <time>1970-01-01T00:00:00Z</time>
      </trkpt>
      <trkpt lat="42.48161" lon="0.03009">
        <ele>1459</ele>
        <time>1970-01-01T00:00:00Z</time>
      </trkpt>
      <trkpt lat="42.48159" lon="0.03005">
        <ele>1460.2</ele>
        <time>1970-01-01T00:00:00Z</time>
      </trkpt>
      <trkpt lat="42.48173" lon="0.02991">
        <ele>1465.6</ele>
        <time>1970-01-01T00:00:00Z</time>
      </trkpt>
      <trkpt lat="42.48179" lon="0.02985">
        <ele>1468</ele>
        <time>1970-01-01T00:00:00Z</time>
      </trkpt>
      <trkpt lat="42.48182" lon="0.02965">
        <ele>1474.5</ele>
        <time>1970-01-01T00:00:00Z</time>
      </trkpt>
      <trkpt lat="42.4818" lon="0.02957">
        <ele>1477.1</ele>
        <time>1970-01-01T00:00:00Z</time>
      </trkpt>
      <trkpt lat="42.48185" lon="0.02951">
        <ele>1479.1</ele>
        <time>1970-01-01T00:00:00Z</time>
      </trkpt>
      <trkpt lat="42.48196" lon="0.02945">
        <ele>1481.8</ele>
        <time>1970-01-01T00:00:00Z</time>
      </trkpt>
      <trkpt lat="42.48207" lon="0.02926">
        <ele>1488</ele>
        <time>1970-01-01T00:00:00Z</time>
      </trkpt>
      <trkpt lat="42.48214" lon="0.02908">
        <ele>1494</ele>
        <time>1970-01-01T00:00:00Z</time>
      </trkpt>
      <trkpt lat="42.48229" lon="0.02891">
        <ele>1500.5</ele>
        <time>1970-01-01T00:00:00Z</time>
      </trkpt>
      <trkpt lat="42.48236" lon="0.02867">
        <ele>1508.3</ele>
        <time>1970-01-01T00:00:00Z</time>
      </trkpt>
      <trkpt lat="42.48246" lon="0.02865">
        <ele>1509.9</ele>
        <time>1970-01-01T00:00:00Z</time>
      </trkpt>
      <trkpt lat="42.48252" lon="0.02851">
        <ele>1514.8</ele>
        <time>1970-01-01T00:00:00Z</time>
      </trkpt>
      <trkpt lat="42.48275" lon="0.02821">
        <ele>1525.8</ele>
        <time>1970-01-01T00:00:00Z</time>
      </trkpt>
      <trkpt lat="42.48289" lon="0.0281">
        <ele>1530.7</ele>
        <time>1970-01-01T00:00:00Z</time>
      </trkpt>
      <trkpt lat="42.48289" lon="0.028">
        <ele>1534</ele>
        <time>1970-01-01T00:00:00Z</time>
      </trkpt>
      <trkpt lat="42.48301" lon="0.02788">
        <ele>1539.4</ele>
        <time>1970-01-01T00:00:00Z</time>
      </trkpt>
      <trkpt lat="42.48313" lon="0.02783">
        <ele>1542.6</ele>
        <time>1970-01-01T00:00:00Z</time>
      </trkpt>
      <trkpt lat="42.48342" lon="0.02765">
        <ele>1552.6</ele>
        <time>1970-01-01T00:00:00Z</time>
      </trkpt>
      <trkpt lat="42.48375" lon="0.02741">
        <ele>1565</ele>
        <time>1970-01-01T00:00:00Z</time>
      </trkpt>
      <trkpt lat="42.48461" lon="0.02694">
        <ele>1591.7</ele>
        <time>1970-01-01T00:00:00Z</time>
      </trkpt>
      <trkpt lat="42.48497" lon="0.0267">
        <ele>1601.5</ele>
        <time>1970-01-01T00:00:00Z</time>
      </trkpt>
      <trkpt lat="42.48585" lon="0.02615">
        <ele>1625.1</ele>
        <time>1970-01-01T00:00:00Z</time>
      </trkpt>
      <trkpt lat="42.48611" lon="0.02593">
        <ele>1627.5</ele>
        <time>1970-01-01T00:00:00Z</time>
      </trkpt>
      <trkpt lat="42.48656" lon="0.02568">
        <ele>1640.4</ele>
        <time>1970-01-01T00:00:00Z</time>
      </trkpt>
      <trkpt lat="42.48718" lon="0.02544">
        <ele>1654.7</ele>
        <time>1970-01-01T00:00:00Z</time>
      </trkpt>
      <trkpt lat="42.48765" lon="0.02538">
        <ele>1665.3</ele>
        <time>1970-01-01T00:00:00Z</time>
      </trkpt>
      <trkpt lat="42.48811" lon="0.02493">
        <ele>1683.1</ele>
        <time>1970-01-01T00:00:00Z</time>
      </trkpt>
      <trkpt lat="42.48856" lon="0.02478">
        <ele>1698</ele>
        <time>1970-01-01T00:00:00Z</time>
      </trkpt>
      <trkpt lat="42.48898" lon="0.02469">
        <ele>1705.9</ele>
        <time>1970-01-01T00:00:00Z</time>
      </trkpt>
      <trkpt lat="42.4896" lon="0.02462">
        <ele>1717.4</ele>
        <time>1970-01-01T00:00:00Z</time>
      </trkpt>
      <trkpt lat="42.49018" lon="0.02454">
        <ele>1727.6</ele>
        <time>1970-01-01T00:00:00Z</time>
      </trkpt>
      <trkpt lat="42.49077" lon="0.02462">
        <ele>1745.2</ele>
        <time>1970-01-01T00:00:00Z</time>
      </trkpt>
      <trkpt lat="42.49104" lon="0.02469">
        <ele>1753.6</ele>
        <time>1970-01-01T00:00:00Z</time>
      </trkpt>
      <trkpt lat="42.49164" lon="0.02466">
        <ele>1768.9</ele>
        <time>1970-01-01T00:00:00Z</time>
      </trkpt>
      <trkpt lat="42.49241" lon="0.02467">
        <ele>1785.7</ele>
        <time>1970-01-01T00:00:00Z</time>
      </trkpt>
      <trkpt lat="42.49276" lon="0.02489">
        <ele>1791.1</ele>
        <time>1970-01-01T00:00:00Z</time>
      </trkpt>
      <trkpt lat="42.49276" lon="0.02489">
        <ele>1791.1</ele>
        <time>1970-01-01T00:00:00Z</time>
      </trkpt>
      <trkpt lat="42.49185" lon="0.02463">
        <ele>1768.6</ele>
        <time>1970-01-01T00:00:00Z</time>
      </trkpt>
      <trkpt lat="42.49059" lon="0.02458">
        <ele>1742.5</ele>
        <time>1970-01-01T00:00:00Z</time>
      </trkpt>
      <trkpt lat="42.48987" lon="0.02455">
        <ele>1719</ele>
        <time>1970-01-01T00:00:00Z</time>
      </trkpt>
      <trkpt lat="42.48877" lon="0.02475">
        <ele>1699.2</ele>
        <time>1970-01-01T00:00:00Z</time>
      </trkpt>
      <trkpt lat="42.48828" lon="0.02486">
        <ele>1687.9</ele>
        <time>1970-01-01T00:00:00Z</time>
      </trkpt>
      <trkpt lat="42.48777" lon="0.02526">
        <ele>1669.9</ele>
        <time>1970-01-01T00:00:00Z</time>
      </trkpt>
      <trkpt lat="42.48743" lon="0.02541">
        <ele>1660.7</ele>
        <time>1970-01-01T00:00:00Z</time>
      </trkpt>
      <trkpt lat="42.48683" lon="0.02554">
        <ele>1645.2</ele>
        <time>1970-01-01T00:00:00Z</time>
      </trkpt>
      <trkpt lat="42.48626" lon="0.02589">
        <ele>1630.6</ele>
        <time>1970-01-01T00:00:00Z</time>
      </trkpt>
      <trkpt lat="42.48594" lon="0.0258">
        <ele>1637.7</ele>
        <time>1970-01-01T00:00:00Z</time>
      </trkpt>
      <trkpt lat="42.48543" lon="0.02501">
        <ele>1645.2</ele>
        <time>1970-01-01T00:00:00Z</time>
      </trkpt>
      <trkpt lat="42.48544" lon="0.02476">
        <ele>1646.1</ele>
        <time>1970-01-01T00:00:00Z</time>
      </trkpt>
      <trkpt lat="42.48539" lon="0.02466">
        <ele>1645</ele>
        <time>1970-01-01T00:00:00Z</time>
      </trkpt>
      <trkpt lat="42.48539" lon="0.02449">
        <ele>1644</ele>
        <time>1970-01-01T00:00:00Z</time>
      </trkpt>
      <trkpt lat="42.48546" lon="0.02436">
        <ele>1644</ele>
        <time>1970-01-01T00:00:00Z</time>
      </trkpt>
      <trkpt lat="42.48548" lon="0.02416">
        <ele>1642.4</ele>
        <time>1970-01-01T00:00:00Z</time>
      </trkpt>
      <trkpt lat="42.48548" lon="0.02397">
        <ele>1640.4</ele>
        <time>1970-01-01T00:00:00Z</time>
      </trkpt>
      <trkpt lat="42.48528" lon="0.0234">
        <ele>1630.1</ele>
        <time>1970-01-01T00:00:00Z</time>
      </trkpt>
      <trkpt lat="42.4852" lon="0.02329">
        <ele>1626.6</ele>
        <time>1970-01-01T00:00:00Z</time>
      </trkpt>
      <trkpt lat="42.48503" lon="0.0232">
        <ele>1619</ele>
        <time>1970-01-01T00:00:00Z</time>
      </trkpt>
      <trkpt lat="42.48494" lon="0.02315">
        <ele>1614.9</ele>
        <time>1970-01-01T00:00:00Z</time>
      </trkpt>
      <trkpt lat="42.48488" lon="0.02319">
        <ele>1610.6</ele>
        <time>1970-01-01T00:00:00Z</time>
      </trkpt>
      <trkpt lat="42.48482" lon="0.02315">
        <ele>1607.8</ele>
        <time>1970-01-01T00:00:00Z</time>
      </trkpt>
      <trkpt lat="42.48475" lon="0.02308">
        <ele>1605.1</ele>
        <time>1970-01-01T00:00:00Z</time>
      </trkpt>
      <trkpt lat="42.48471" lon="0.02303">
        <ele>1603.9</ele>
        <time>1970-01-01T00:00:00Z</time>
      </trkpt>
      <trkpt lat="42.4846" lon="0.02295">
        <ele>1599.4</ele>
        <time>1970-01-01T00:00:00Z</time>
      </trkpt>
      <trkpt lat="42.48442" lon="0.0227">
        <ele>1593.8</ele>
        <time>1970-01-01T00:00:00Z</time>
      </trkpt>
      <trkpt lat="42.48435" lon="0.0226">
        <ele>1591.9</ele>
        <time>1970-01-01T00:00:00Z</time>
      </trkpt>
      <trkpt lat="42.4843" lon="0.02259">
        <ele>1589.1</ele>
        <time>1970-01-01T00:00:00Z</time>
      </trkpt>
      <trkpt lat="42.48426" lon="0.02254">
        <ele>1587.7</ele>
        <time>1970-01-01T00:00:00Z</time>
      </trkpt>
      <trkpt lat="42.48423" lon="0.02248">
        <ele>1587.8</ele>
        <time>1970-01-01T00:00:00Z</time>
      </trkpt>
      <trkpt lat="42.4841" lon="0.02229">
        <ele>1584.6</ele>
        <time>1970-01-01T00:00:00Z</time>
      </trkpt>
      <trkpt lat="42.484" lon="0.02218">
        <ele>1580.6</ele>
        <time>1970-01-01T00:00:00Z</time>
      </trkpt>
      <trkpt lat="42.48396" lon="0.02209">
        <ele>1580.4</ele>
        <time>1970-01-01T00:00:00Z</time>
      </trkpt>
      <trkpt lat="42.48376" lon="0.02183">
        <ele>1572.4</ele>
        <time>1970-01-01T00:00:00Z</time>
      </trkpt>
      <trkpt lat="42.48365" lon="0.02164">
        <ele>1569.3</ele>
        <time>1970-01-01T00:00:00Z</time>
      </trkpt>
      <trkpt lat="42.48355" lon="0.02155">
        <ele>1565.4</ele>
        <time>1970-01-01T00:00:00Z</time>
      </trkpt>
      <trkpt lat="42.48342" lon="0.02138">
        <ele>1561.4</ele>
        <time>1970-01-01T00:00:00Z</time>
      </trkpt>
      <trkpt lat="42.48331" lon="0.02128">
        <ele>1557.6</ele>
        <time>1970-01-01T00:00:00Z</time>
      </trkpt>
      <trkpt lat="42.48326" lon="0.02118">
        <ele>1556</ele>
        <time>1970-01-01T00:00:00Z</time>
      </trkpt>
      <trkpt lat="42.48319" lon="0.02132">
        <ele>1550</ele>
        <time>1970-01-01T00:00:00Z</time>
      </trkpt>
      <trkpt lat="42.48311" lon="0.02142">
        <ele>1543.1</ele>
        <time>1970-01-01T00:00:00Z</time>
      </trkpt>
      <trkpt lat="42.4831" lon="0.02152">
        <ele>1540.1</ele>
        <time>1970-01-01T00:00:00Z</time>
      </trkpt>
      <trkpt lat="42.48306" lon="0.02159">
        <ele>1535.2</ele>
        <time>1970-01-01T00:00:00Z</time>
      </trkpt>
      <trkpt lat="42.48302" lon="0.02166">
        <ele>1530.5</ele>
        <time>1970-01-01T00:00:00Z</time>
      </trkpt>
      <trkpt lat="42.48298" lon="0.02168">
        <ele>1527.4</ele>
        <time>1970-01-01T00:00:00Z</time>
      </trkpt>
      <trkpt lat="42.48294" lon="0.02162">
        <ele>1527.6</ele>
        <time>1970-01-01T00:00:00Z</time>
      </trkpt>
      <trkpt lat="42.48284" lon="0.02168">
        <ele>1519.8</ele>
        <time>1970-01-01T00:00:00Z</time>
      </trkpt>
      <trkpt lat="42.48258" lon="0.0217">
        <ele>1506.2</ele>
        <time>1970-01-01T00:00:00Z</time>
      </trkpt>
      <trkpt lat="42.48248" lon="0.02192">
        <ele>1491.9</ele>
        <time>1970-01-01T00:00:00Z</time>
      </trkpt>
      <trkpt lat="42.48225" lon="0.0218">
        <ele>1485.4</ele>
        <time>1970-01-01T00:00:00Z</time>
      </trkpt>
      <trkpt lat="42.48202" lon="0.02136">
        <ele>1487.6</ele>
        <time>1970-01-01T00:00:00Z</time>
      </trkpt>
      <trkpt lat="42.48194" lon="0.02111">
        <ele>1488.6</ele>
        <time>1970-01-01T00:00:00Z</time>
      </trkpt>
      <trkpt lat="42.48179" lon="0.0209">
        <ele>1481.8</ele>
        <time>1970-01-01T00:00:00Z</time>
      </trkpt>
      <trkpt lat="42.481" lon="0.02061">
        <ele>1450.4</ele>
        <time>1970-01-01T00:00:00Z</time>
      </trkpt>
      <trkpt lat="42.48071" lon="0.01997">
        <ele>1449.6</ele>
        <time>1970-01-01T00:00:00Z</time>
      </trkpt>
      <trkpt lat="42.48046" lon="0.01938">
        <ele>1435.9</ele>
        <time>1970-01-01T00:00:00Z</time>
      </trkpt>
      <trkpt lat="42.48037" lon="0.01931">
        <ele>1430.4</ele>
        <time>1970-01-01T00:00:00Z</time>
      </trkpt>
      <trkpt lat="42.48027" lon="0.01908">
        <ele>1426.2</ele>
        <time>1970-01-01T00:00:00Z</time>
      </trkpt>
      <trkpt lat="42.48018" lon="0.019">
        <ele>1420.7</ele>
        <time>1970-01-01T00:00:00Z</time>
      </trkpt>
      <trkpt lat="42.47998" lon="0.01893">
        <ele>1408.8</ele>
        <time>1970-01-01T00:00:00Z</time>
      </trkpt>
      <trkpt lat="42.47983" lon="0.01889">
        <ele>1400.5</ele>
        <time>1970-01-01T00:00:00Z</time>
      </trkpt>
      <trkpt lat="42.47979" lon="0.01879">
        <ele>1400.1</ele>
        <time>1970-01-01T00:00:00Z</time>
      </trkpt>
      <trkpt lat="42.47979" lon="0.01851">
        <ele>1404.9</ele>
        <time>1970-01-01T00:00:00Z</time>
      </trkpt>
      <trkpt lat="42.47982" lon="0.01818">
        <ele>1406.1</ele>
        <time>1970-01-01T00:00:00Z</time>
      </trkpt>
      <trkpt lat="42.47979" lon="0.01809">
        <ele>1404.7</ele>
        <time>1970-01-01T00:00:00Z</time>
      </trkpt>
      <trkpt lat="42.47981" lon="0.01805">
        <ele>1404.4</ele>
        <time>1970-01-01T00:00:00Z</time>
      </trkpt>
      <trkpt lat="42.4799" lon="0.01805">
        <ele>1405.8</ele>
        <time>1970-01-01T00:00:00Z</time>
      </trkpt>
      <trkpt lat="42.48002" lon="0.01805">
        <ele>1408.3</ele>
        <time>1970-01-01T00:00:00Z</time>
      </trkpt>
      <trkpt lat="42.48011" lon="0.01788">
        <ele>1408.5</ele>
        <time>1970-01-01T00:00:00Z</time>
      </trkpt>
      <trkpt lat="42.4801" lon="0.01778">
        <ele>1407.4</ele>
        <time>1970-01-01T00:00:00Z</time>
      </trkpt>
      <trkpt lat="42.48006" lon="0.0177">
        <ele>1405.6</ele>
        <time>1970-01-01T00:00:00Z</time>
      </trkpt>
      <trkpt lat="42.48" lon="0.01749">
        <ele>1402.4</ele>
        <time>1970-01-01T00:00:00Z</time>
      </trkpt>
      <trkpt lat="42.47992" lon="0.01716">
        <ele>1396.3</ele>
        <time>1970-01-01T00:00:00Z</time>
      </trkpt>
      <trkpt lat="42.48001" lon="0.01703">
        <ele>1396.7</ele>
        <time>1970-01-01T00:00:00Z</time>
      </trkpt>
      <trkpt lat="42.48011" lon="0.01676">
        <ele>1393.9</ele>
        <time>1970-01-01T00:00:00Z</time>
      </trkpt>
      <trkpt lat="42.48012" lon="0.01658">
        <ele>1390.6</ele>
        <time>1970-01-01T00:00:00Z</time>
      </trkpt>
      <trkpt lat="42.48001" lon="0.01657">
        <ele>1386.8</ele>
        <time>1970-01-01T00:00:00Z</time>
      </trkpt>
      <trkpt lat="42.48006" lon="0.01636">
        <ele>1383.5</ele>
        <time>1970-01-01T00:00:00Z</time>
      </trkpt>
      <trkpt lat="42.48007" lon="0.01614">
        <ele>1378.4</ele>
        <time>1970-01-01T00:00:00Z</time>
      </trkpt>
      <trkpt lat="42.48015" lon="0.01586">
        <ele>1373.1</ele>
        <time>1970-01-01T00:00:00Z</time>
      </trkpt>
      <trkpt lat="42.48021" lon="0.0157">
        <ele>1371.9</ele>
        <time>1970-01-01T00:00:00Z</time>
      </trkpt>
      <trkpt lat="42.48019" lon="0.01552">
        <ele>1368.4</ele>
        <time>1970-01-01T00:00:00Z</time>
      </trkpt>
      <trkpt lat="42.48006" lon="0.01513">
        <ele>1357.1</ele>
        <time>1970-01-01T00:00:00Z</time>
      </trkpt>
      <trkpt lat="42.48001" lon="0.01462">
        <ele>1348.8</ele>
        <time>1970-01-01T00:00:00Z</time>
      </trkpt>
      <trkpt lat="42.48003" lon="0.01433">
        <ele>1344.8</ele>
        <time>1970-01-01T00:00:00Z</time>
      </trkpt>
      <trkpt lat="42.48005" lon="0.01418">
        <ele>1344.3</ele>
        <time>1970-01-01T00:00:00Z</time>
      </trkpt>
      <trkpt lat="42.47987" lon="0.01376">
        <ele>1331.3</ele>
        <time>1970-01-01T00:00:00Z</time>
      </trkpt>
      <trkpt lat="42.47971" lon="0.01352">
        <ele>1323.3</ele>
        <time>1970-01-01T00:00:00Z</time>
      </trkpt>
      <trkpt lat="42.47959" lon="0.01324">
        <ele>1318.8</ele>
        <time>1970-01-01T00:00:00Z</time>
      </trkpt>
      <trkpt lat="42.47949" lon="0.01305">
        <ele>1314.3</ele>
        <time>1970-01-01T00:00:00Z</time>
      </trkpt>
      <trkpt lat="42.47941" lon="0.01312">
        <ele>1310.8</ele>
        <time>1970-01-01T00:00:00Z</time>
      </trkpt>
      <trkpt lat="42.47939" lon="0.01316">
        <ele>1309.9</ele>
        <time>1970-01-01T00:00:00Z</time>
      </trkpt>
      <trkpt lat="42.47923" lon="0.01305">
        <ele>1301.9</ele>
        <time>1970-01-01T00:00:00Z</time>
      </trkpt>
      <trkpt lat="42.47914" lon="0.01303">
        <ele>1296.3</ele>
        <time>1970-01-01T00:00:00Z</time>
      </trkpt>
      <trkpt lat="42.47906" lon="0.01297">
        <ele>1292.3</ele>
        <time>1970-01-01T00:00:00Z</time>
      </trkpt>
      <trkpt lat="42.47895" lon="0.01286">
        <ele>1287</ele>
        <time>1970-01-01T00:00:00Z</time>
      </trkpt>
      <trkpt lat="42.47889" lon="0.01279">
        <ele>1283.4</ele>
        <time>1970-01-01T00:00:00Z</time>
      </trkpt>
      <trkpt lat="42.47885" lon="0.01278">
        <ele>1280.3</ele>
        <time>1970-01-01T00:00:00Z</time>
      </trkpt>
      <trkpt lat="42.47883" lon="0.01269">
        <ele>1278.9</ele>
        <time>1970-01-01T00:00:00Z</time>
      </trkpt>
      <trkpt lat="42.47877" lon="0.01266">
        <ele>1275.3</ele>
        <time>1970-01-01T00:00:00Z</time>
      </trkpt>
      <trkpt lat="42.47879" lon="0.01252">
        <ele>1276.8</ele>
        <time>1970-01-01T00:00:00Z</time>
      </trkpt>
      <trkpt lat="42.47875" lon="0.01248">
        <ele>1274.1</ele>
        <time>1970-01-01T00:00:00Z</time>
      </trkpt>
      <trkpt lat="42.47871" lon="0.01249">
        <ele>1271.7</ele>
        <time>1970-01-01T00:00:00Z</time>
      </trkpt>
      <trkpt lat="42.47874" lon="0.01229">
        <ele>1273.4</ele>
        <time>1970-01-01T00:00:00Z</time>
      </trkpt>
      <trkpt lat="42.47868" lon="0.01228">
        <ele>1269.8</ele>
        <time>1970-01-01T00:00:00Z</time>
      </trkpt>
      <trkpt lat="42.47861" lon="0.01234">
        <ele>1265.6</ele>
        <time>1970-01-01T00:00:00Z</time>
      </trkpt>
      <trkpt lat="42.47862" lon="0.01222">
        <ele>1266.5</ele>
        <time>1970-01-01T00:00:00Z</time>
      </trkpt>
      <trkpt lat="42.47856" lon="0.01221">
        <ele>1263.1</ele>
        <time>1970-01-01T00:00:00Z</time>
      </trkpt>
      <trkpt lat="42.4785" lon="0.01227">
        <ele>1259.7</ele>
        <time>1970-01-01T00:00:00Z</time>
      </trkpt>
      <trkpt lat="42.47849" lon="0.0122">
        <ele>1258.8</ele>
        <time>1970-01-01T00:00:00Z</time>
      </trkpt>
      <trkpt lat="42.47845" lon="0.01214">
        <ele>1256.5</ele>
        <time>1970-01-01T00:00:00Z</time>
      </trkpt>
      <trkpt lat="42.47836" lon="0.01207">
        <ele>1251.2</ele>
        <time>1970-01-01T00:00:00Z</time>
      </trkpt>
      <trkpt lat="42.47837" lon="0.01187">
        <ele>1251</ele>
        <time>1970-01-01T00:00:00Z</time>
      </trkpt>
      <trkpt lat="42.4783" lon="0.01191">
        <ele>1246.9</ele>
        <time>1970-01-01T00:00:00Z</time>
      </trkpt>
      <trkpt lat="42.47819" lon="0.01185">
        <ele>1240.4</ele>
        <time>1970-01-01T00:00:00Z</time>
      </trkpt>
      <trkpt lat="42.47818" lon="0.01173">
        <ele>1240.2</ele>
        <time>1970-01-01T00:00:00Z</time>
      </trkpt>
      <trkpt lat="42.47811" lon="0.01165">
        <ele>1236.4</ele>
        <time>1970-01-01T00:00:00Z</time>
      </trkpt>
      <trkpt lat="42.47802" lon="0.01159">
        <ele>1230.3</ele>
        <time>1970-01-01T00:00:00Z</time>
      </trkpt>
      <trkpt lat="42.47802" lon="0.01164">
        <ele>1230.1</ele>
        <time>1970-01-01T00:00:00Z</time>
      </trkpt>
      <trkpt lat="42.47809" lon="0.01176">
        <ele>1235.3</ele>
        <time>1970-01-01T00:00:00Z</time>
      </trkpt>
      <trkpt lat="42.47813" lon="0.0119">
        <ele>1237.2</ele>
        <time>1970-01-01T00:00:00Z</time>
      </trkpt>
      <trkpt lat="42.4782" lon="0.01204">
        <ele>1241.5</ele>
        <time>1970-01-01T00:00:00Z</time>
      </trkpt>
      <trkpt lat="42.47825" lon="0.01219">
        <ele>1245.5</ele>
        <time>1970-01-01T00:00:00Z</time>
      </trkpt>
      <trkpt lat="42.47822" lon="0.01236">
        <ele>1246.1</ele>
        <time>1970-01-01T00:00:00Z</time>
      </trkpt>
      <trkpt lat="42.47815" lon="0.01243">
        <ele>1244.7</ele>
        <time>1970-01-01T00:00:00Z</time>
      </trkpt>
      <trkpt lat="42.47806" lon="0.01244">
        <ele>1242.1</ele>
        <time>1970-01-01T00:00:00Z</time>
      </trkpt>
      <trkpt lat="42.478" lon="0.01246">
        <ele>1241.2</ele>
        <time>1970-01-01T00:00:00Z</time>
      </trkpt>
      <trkpt lat="42.47795" lon="0.01249">
        <ele>1241</ele>
        <time>1970-01-01T00:00:00Z</time>
      </trkpt>
      <trkpt lat="42.47789" lon="0.01255">
        <ele>1243.3</ele>
        <time>1970-01-01T00:00:00Z</time>
      </trkpt>
      <trkpt lat="42.47786" lon="0.01262">
        <ele>1246.4</ele>
        <time>1970-01-01T00:00:00Z</time>
      </trkpt>
      <trkpt lat="42.47772" lon="0.01272">
        <ele>1249.9</ele>
        <time>1970-01-01T00:00:00Z</time>
      </trkpt>
      <trkpt lat="42.47762" lon="0.01276">
        <ele>1249.7</ele>
        <time>1970-01-01T00:00:00Z</time>
      </trkpt>
      <trkpt lat="42.47745" lon="0.01276">
        <ele>1248.1</ele>
        <time>1970-01-01T00:00:00Z</time>
      </trkpt>
      <trkpt lat="42.47721" lon="0.01278">
        <ele>1247.9</ele>
        <time>1970-01-01T00:00:00Z</time>
      </trkpt>
      <trkpt lat="42.47699" lon="0.01263">
        <ele>1239.1</ele>
        <time>1970-01-01T00:00:00Z</time>
      </trkpt>
      <trkpt lat="42.47676" lon="0.01254">
        <ele>1234.4</ele>
        <time>1970-01-01T00:00:00Z</time>
      </trkpt>
      <trkpt lat="42.47649" lon="0.01242">
        <ele>1229.7</ele>
        <time>1970-01-01T00:00:00Z</time>
      </trkpt>
      <trkpt lat="42.47613" lon="0.01214">
        <ele>1218</ele>
        <time>1970-01-01T00:00:00Z</time>
      </trkpt>
      <trkpt lat="42.47595" lon="0.01207">
        <ele>1213.3</ele>
        <time>1970-01-01T00:00:00Z</time>
      </trkpt>
      <trkpt lat="42.47584" lon="0.01199">
        <ele>1209.4</ele>
        <time>1970-01-01T00:00:00Z</time>
      </trkpt>
      <trkpt lat="42.4759" lon="0.01197">
        <ele>1209.6</ele>
        <time>1970-01-01T00:00:00Z</time>
      </trkpt>
      <trkpt lat="42.47603" lon="0.01198">
        <ele>1210.7</ele>
        <time>1970-01-01T00:00:00Z</time>
      </trkpt>
      <trkpt lat="42.47609" lon="0.01196">
        <ele>1210.1</ele>
        <time>1970-01-01T00:00:00Z</time>
      </trkpt>
      <trkpt lat="42.47605" lon="0.01191">
        <ele>1208.3</ele>
        <time>1970-01-01T00:00:00Z</time>
      </trkpt>
      <trkpt lat="42.47595" lon="0.01187">
        <ele>1206.5</ele>
        <time>1970-01-01T00:00:00Z</time>
      </trkpt>
      <trkpt lat="42.47576" lon="0.0117">
        <ele>1200.9</ele>
        <time>1970-01-01T00:00:00Z</time>
      </trkpt>
      <trkpt lat="42.47557" lon="0.01142">
        <ele>1191.9</ele>
        <time>1970-01-01T00:00:00Z</time>
      </trkpt>
      <trkpt lat="42.47566" lon="0.01142">
        <ele>1191.7</ele>
        <time>1970-01-01T00:00:00Z</time>
      </trkpt>
      <trkpt lat="42.47563" lon="0.01132">
        <ele>1189.1</ele>
        <time>1970-01-01T00:00:00Z</time>
      </trkpt>
      <trkpt lat="42.47553" lon="0.01117">
        <ele>1184.6</ele>
        <time>1970-01-01T00:00:00Z</time>
      </trkpt>
      <trkpt lat="42.47506" lon="0.01058">
        <ele>1173.9</ele>
        <time>1970-01-01T00:00:00Z</time>
      </trkpt>
      <trkpt lat="42.47491" lon="0.01043">
        <ele>1165.1</ele>
        <time>1970-01-01T00:00:00Z</time>
      </trkpt>
      <trkpt lat="42.47535" lon="0.01052">
        <ele>1170.5</ele>
        <time>1970-01-01T00:00:00Z</time>
      </trkpt>
      <trkpt lat="42.47563" lon="0.01074">
        <ele>1168.3</ele>
        <time>1970-01-01T00:00:00Z</time>
      </trkpt>
      <trkpt lat="42.4757" lon="0.0108">
        <ele>1167.1</ele>
        <time>1970-01-01T00:00:00Z</time>
      </trkpt>
      <trkpt lat="42.47586" lon="0.01082">
        <ele>1161.1</ele>
        <time>1970-01-01T00:00:00Z</time>
      </trkpt>
      <trkpt lat="42.47605" lon="0.01102">
        <ele>1165.3</ele>
        <time>1970-01-01T00:00:00Z</time>
      </trkpt>
      <trkpt lat="42.47643" lon="0.01112">
        <ele>1163.6</ele>
        <time>1970-01-01T00:00:00Z</time>
      </trkpt>
      <trkpt lat="42.47667" lon="0.01102">
        <ele>1162.6</ele>
        <time>1970-01-01T00:00:00Z</time>
      </trkpt>
      <trkpt lat="42.47671" lon="0.01086">
        <ele>1160.6</ele>
        <time>1970-01-01T00:00:00Z</time>
      </trkpt>
      <trkpt lat="42.47653" lon="0.01066">
        <ele>1151.8</ele>
        <time>1970-01-01T00:00:00Z</time>
      </trkpt>
      <trkpt lat="42.47644" lon="0.0104">
        <ele>1148.3</ele>
        <time>1970-01-01T00:00:00Z</time>
      </trkpt>
      <trkpt lat="42.47641" lon="0.01019">
        <ele>1149</ele>
        <time>1970-01-01T00:00:00Z</time>
      </trkpt>
      <trkpt lat="42.47639" lon="0.00995">
        <ele>1149.6</ele>
        <time>1970-01-01T00:00:00Z</time>
      </trkpt>
      <trkpt lat="42.47635" lon="0.0097">
        <ele>1147.1</ele>
        <time>1970-01-01T00:00:00Z</time>
      </trkpt>
      <trkpt lat="42.47638" lon="0.0096">
        <ele>1147.6</ele>
        <time>1970-01-01T00:00:00Z</time>
      </trkpt>
      <trkpt lat="42.47638" lon="0.0095">
        <ele>1146.6</ele>
        <time>1970-01-01T00:00:00Z</time>
      </trkpt>
      <trkpt lat="42.47634" lon="0.00941">
        <ele>1142.2</ele>
        <time>1970-01-01T00:00:00Z</time>
      </trkpt>
      <trkpt lat="42.47645" lon="0.00909">
        <ele>1135.7</ele>
        <time>1970-01-01T00:00:00Z</time>
      </trkpt>
      <trkpt lat="42.47659" lon="0.00891">
        <ele>1133.4</ele>
        <time>1970-01-01T00:00:00Z</time>
      </trkpt>
      <trkpt lat="42.47677" lon="0.00882">
        <ele>1134.2</ele>
        <time>1970-01-01T00:00:00Z</time>
      </trkpt>
      <trkpt lat="42.47697" lon="0.00868">
        <ele>1131.7</ele>
        <time>1970-01-01T00:00:00Z</time>
      </trkpt>
      <trkpt lat="42.47699" lon="0.00858">
        <ele>1127.9</ele>
        <time>1970-01-01T00:00:00Z</time>
      </trkpt>
      <trkpt lat="42.47693" lon="0.00848">
        <ele>1123</ele>
        <time>1970-01-01T00:00:00Z</time>
      </trkpt>
      <trkpt lat="42.47698" lon="0.00839">
        <ele>1120.4</ele>
        <time>1970-01-01T00:00:00Z</time>
      </trkpt>
      <trkpt lat="42.47696" lon="0.00831">
        <ele>1117.7</ele>
        <time>1970-01-01T00:00:00Z</time>
      </trkpt>
      <trkpt lat="42.47691" lon="0.00835">
        <ele>1118.2</ele>
        <time>1970-01-01T00:00:00Z</time>
      </trkpt>
      <trkpt lat="42.47688" lon="0.00827">
        <ele>1115</ele>
        <time>1970-01-01T00:00:00Z</time>
      </trkpt>
      <trkpt lat="42.47706" lon="0.00805">
        <ele>1108.1</ele>
        <time>1970-01-01T00:00:00Z</time>
      </trkpt>
      <trkpt lat="42.47703" lon="0.00777">
        <ele>1100</ele>
        <time>1970-01-01T00:00:00Z</time>
      </trkpt>
      <trkpt lat="42.47695" lon="0.00766">
        <ele>1098.8</ele>
        <time>1970-01-01T00:00:00Z</time>
      </trkpt>
      <trkpt lat="42.47682" lon="0.00765">
        <ele>1097.9</ele>
        <time>1970-01-01T00:00:00Z</time>
      </trkpt>
      <trkpt lat="42.47668" lon="0.00755">
        <ele>1093.3</ele>
        <time>1970-01-01T00:00:00Z</time>
      </trkpt>
      <trkpt lat="42.47656" lon="0.00745">
        <ele>1089.3</ele>
        <time>1970-01-01T00:00:00Z</time>
      </trkpt>
      <trkpt lat="42.47651" lon="0.00743">
        <ele>1087.7</ele>
        <time>1970-01-01T00:00:00Z</time>
      </trkpt>
      <trkpt lat="42.47646" lon="0.0074">
        <ele>1085.9</ele>
        <time>1970-01-01T00:00:00Z</time>
      </trkpt>
      <trkpt lat="42.47645" lon="0.00735">
        <ele>1085.5</ele>
        <time>1970-01-01T00:00:00Z</time>
      </trkpt>
      <trkpt lat="42.47636" lon="0.00733">
        <ele>1083.2</ele>
        <time>1970-01-01T00:00:00Z</time>
      </trkpt>
      <trkpt lat="42.4763" lon="0.0073">
        <ele>1082.2</ele>
        <time>1970-01-01T00:00:00Z</time>
      </trkpt>
      <trkpt lat="42.4763" lon="0.0073">
        <ele>1082.2</ele>
        <time>1970-01-01T00:00:00Z</time>
      </trkpt>
      <trkpt lat="42.47628" lon="0.00732">
        <ele>1081.7</ele>
        <time>1970-01-01T00:00:00Z</time>
      </trkpt>
      <trkpt lat="42.47618" lon="0.00725">
        <ele>1078.5</ele>
        <time>1970-01-01T00:00:00Z</time>
      </trkpt>
      <trkpt lat="42.47613" lon="0.00726">
        <ele>1076.1</ele>
        <time>1970-01-01T00:00:00Z</time>
      </trkpt>
      <trkpt lat="42.47612" lon="0.00721">
        <ele>1076.5</ele>
        <time>1970-01-01T00:00:00Z</time>
      </trkpt>
      <trkpt lat="42.47608" lon="0.0072">
        <ele>1074.5</ele>
        <time>1970-01-01T00:00:00Z</time>
      </trkpt>
      <trkpt lat="42.47598" lon="0.00717">
        <ele>1070.3</ele>
        <time>1970-01-01T00:00:00Z</time>
      </trkpt>
      <trkpt lat="42.47592" lon="0.00711">
        <ele>1067.8</ele>
        <time>1970-01-01T00:00:00Z</time>
      </trkpt>
      <trkpt lat="42.47582" lon="0.00703">
        <ele>1063.6</ele>
        <time>1970-01-01T00:00:00Z</time>
      </trkpt>
      <trkpt lat="42.47582" lon="0.00708">
        <ele>1063.3</ele>
        <time>1970-01-01T00:00:00Z</time>
      </trkpt>
      <trkpt lat="42.47583" lon="0.00721">
        <ele>1062.3</ele>
        <time>1970-01-01T00:00:00Z</time>
      </trkpt>
      <trkpt lat="42.47579" lon="0.00721">
        <ele>1060.6</ele>
        <time>1970-01-01T00:00:00Z</time>
      </trkpt>
      <trkpt lat="42.47574" lon="0.00716">
        <ele>1058.7</ele>
        <time>1970-01-01T00:00:00Z</time>
      </trkpt>
      <trkpt lat="42.47565" lon="0.0071">
        <ele>1054.5</ele>
        <time>1970-01-01T00:00:00Z</time>
      </trkpt>
      <trkpt lat="42.47558" lon="0.00705">
        <ele>1050.5</ele>
        <time>1970-01-01T00:00:00Z</time>
      </trkpt>
      <trkpt lat="42.47549" lon="0.00695">
        <ele>1046.7</ele>
        <time>1970-01-01T00:00:00Z</time>
      </trkpt>
      <trkpt lat="42.47493" lon="0.00649">
        <ele>1023.2</ele>
        <time>1970-01-01T00:00:00Z</time>
      </trkpt>
      <trkpt lat="42.47485" lon="0.00651">
        <ele>1017.2</ele>
        <time>1970-01-01T00:00:00Z</time>
      </trkpt>
      <trkpt lat="42.47482" lon="0.00644">
        <ele>1017</ele>
        <time>1970-01-01T00:00:00Z</time>
      </trkpt>
      <trkpt lat="42.47481" lon="0.00651">
        <ele>1014.7</ele>
        <time>1970-01-01T00:00:00Z</time>
      </trkpt>
      <trkpt lat="42.47477" lon="0.00651">
        <ele>1012.5</ele>
        <time>1970-01-01T00:00:00Z</time>
      </trkpt>
      <trkpt lat="42.47468" lon="0.0064">
        <ele>1008.7</ele>
        <time>1970-01-01T00:00:00Z</time>
      </trkpt>
      <trkpt lat="42.47464" lon="0.00636">
        <ele>1006.7</ele>
        <time>1970-01-01T00:00:00Z</time>
      </trkpt>
      <trkpt lat="42.47462" lon="0.00648">
        <ele>1003</ele>
        <time>1970-01-01T00:00:00Z</time>
      </trkpt>
      <trkpt lat="42.4746" lon="0.0065">
        <ele>1002.1</ele>
        <time>1970-01-01T00:00:00Z</time>
      </trkpt>
      <trkpt lat="42.47459" lon="0.00642">
        <ele>1003</ele>
        <time>1970-01-01T00:00:00Z</time>
      </trkpt>
      <trkpt lat="42.47449" lon="0.00628">
        <ele>999.4</ele>
        <time>1970-01-01T00:00:00Z</time>
      </trkpt>
      <trkpt lat="42.47444" lon="0.00625">
        <ele>996</ele>
        <time>1970-01-01T00:00:00Z</time>
      </trkpt>
      <trkpt lat="42.4744" lon="0.00621">
        <ele>994.4</ele>
        <time>1970-01-01T00:00:00Z</time>
      </trkpt>
      <trkpt lat="42.47432" lon="0.0062">
        <ele>988.5</ele>
        <time>1970-01-01T00:00:00Z</time>
      </trkpt>
      <trkpt lat="42.47431" lon="0.00628">
        <ele>986.5</ele>
        <time>1970-01-01T00:00:00Z</time>
      </trkpt>
      <trkpt lat="42.47428" lon="0.00636">
        <ele>984.1</ele>
        <time>1970-01-01T00:00:00Z</time>
      </trkpt>
      <trkpt lat="42.47424" lon="0.00629">
        <ele>981.9</ele>
        <time>1970-01-01T00:00:00Z</time>
      </trkpt>
      <trkpt lat="42.47409" lon="0.00618">
        <ele>974.3</ele>
        <time>1970-01-01T00:00:00Z</time>
      </trkpt>
      <trkpt lat="42.47405" lon="0.00626">
        <ele>970.8</ele>
        <time>1970-01-01T00:00:00Z</time>
      </trkpt>
      <trkpt lat="42.47404" lon="0.00619">
        <ele>970.5</ele>
        <time>1970-01-01T00:00:00Z</time>
      </trkpt>
      <trkpt lat="42.47391" lon="0.00617">
        <ele>964.3</ele>
        <time>1970-01-01T00:00:00Z</time>
      </trkpt>
      <trkpt lat="42.47377" lon="0.0061">
        <ele>959.3</ele>
        <time>1970-01-01T00:00:00Z</time>
      </trkpt>
      <trkpt lat="42.4737" lon="0.006">
        <ele>957.2</ele>
        <time>1970-01-01T00:00:00Z</time>
      </trkpt>
      <trkpt lat="42.47368" lon="0.00599">
        <ele>955.9</ele>
        <time>1970-01-01T00:00:00Z</time>
      </trkpt>
      <trkpt lat="42.47363" lon="0.00605">
        <ele>953.1</ele>
        <time>1970-01-01T00:00:00Z</time>
      </trkpt>
      <trkpt lat="42.47359" lon="0.00605">
        <ele>950.9</ele>
        <time>1970-01-01T00:00:00Z</time>
      </trkpt>
      <trkpt lat="42.4735" lon="0.00587">
        <ele>951.3</ele>
        <time>1970-01-01T00:00:00Z</time>
      </trkpt>
      <trkpt lat="42.47337" lon="0.00577">
        <ele>951</ele>
        <time>1970-01-01T00:00:00Z</time>
      </trkpt>
      <trkpt lat="42.47331" lon="0.00585">
        <ele>942.7</ele>
        <time>1970-01-01T00:00:00Z</time>
      </trkpt>
      <trkpt lat="42.47329" lon="0.00582">
        <ele>943.8</ele>
        <time>1970-01-01T00:00:00Z</time>
      </trkpt>
      <trkpt lat="42.47326" lon="0.00585">
        <ele>939.9</ele>
        <time>1970-01-01T00:00:00Z</time>
      </trkpt>
      <trkpt lat="42.47321" lon="0.00582">
        <ele>940.4</ele>
        <time>1970-01-01T00:00:00Z</time>
      </trkpt>
      <trkpt lat="42.47312" lon="0.00585">
        <ele>933.5</ele>
        <time>1970-01-01T00:00:00Z</time>
      </trkpt>
      <trkpt lat="42.47302" lon="0.00581">
        <ele>930.4</ele>
        <time>1970-01-01T00:00:00Z</time>
      </trkpt>
      <trkpt lat="42.47299" lon="0.00577">
        <ele>930.7</ele>
        <time>1970-01-01T00:00:00Z</time>
      </trkpt>
      <trkpt lat="42.47289" lon="0.00578">
        <ele>922.1</ele>
        <time>1970-01-01T00:00:00Z</time>
      </trkpt>
      <trkpt lat="42.47288" lon="0.00581">
        <ele>920.7</ele>
        <time>1970-01-01T00:00:00Z</time>
      </trkpt>
      <trkpt lat="42.47283" lon="0.00579">
        <ele>918.1</ele>
        <time>1970-01-01T00:00:00Z</time>
      </trkpt>
      <trkpt lat="42.47277" lon="0.00584">
        <ele>913.9</ele>
        <time>1970-01-01T00:00:00Z</time>
      </trkpt>
      <trkpt lat="42.47272" lon="0.00579">
        <ele>912.6</ele>
        <time>1970-01-01T00:00:00Z</time>
      </trkpt>
      <trkpt lat="42.47255" lon="0.00564">
        <ele>907.5</ele>
        <time>1970-01-01T00:00:00Z</time>
      </trkpt>
      <trkpt lat="42.47244" lon="0.00563">
        <ele>902</ele>
        <time>1970-01-01T00:00:00Z</time>
      </trkpt>
      <trkpt lat="42.47228" lon="0.00554">
        <ele>896.6</ele>
        <time>1970-01-01T00:00:00Z</time>
      </trkpt>
      <trkpt lat="42.47223" lon="0.00562">
        <ele>890.9</ele>
        <time>1970-01-01T00:00:00Z</time>
      </trkpt>
      <trkpt lat="42.47205" lon="0.0055">
        <ele>884.1</ele>
        <time>1970-01-01T00:00:00Z</time>
      </trkpt>
      <trkpt lat="42.47178" lon="0.00535">
        <ele>872</ele>
        <time>1970-01-01T00:00:00Z</time>
      </trkpt>
      <trkpt lat="42.47175" lon="0.00541">
        <ele>868.7</ele>
        <time>1970-01-01T00:00:00Z</time>
      </trkpt>
      <trkpt lat="42.47163" lon="0.00534">
        <ele>863.6</ele>
        <time>1970-01-01T00:00:00Z</time>
      </trkpt>
      <trkpt lat="42.47133" lon="0.00511">
        <ele>859</ele>
        <time>1970-01-01T00:00:00Z</time>
      </trkpt>
      <trkpt lat="42.47128" lon="0.00509">
        <ele>857.2</ele>
        <time>1970-01-01T00:00:00Z</time>
      </trkpt>
      <trkpt lat="42.47128" lon="0.00515">
        <ele>853.4</ele>
        <time>1970-01-01T00:00:00Z</time>
      </trkpt>
      <trkpt lat="42.47122" lon="0.00517">
        <ele>848.8</ele>
        <time>1970-01-01T00:00:00Z</time>
      </trkpt>
      <trkpt lat="42.47106" lon="0.0051">
        <ele>843.4</ele>
        <time>1970-01-01T00:00:00Z</time>
      </trkpt>
      <trkpt lat="42.47099" lon="0.0051">
        <ele>839.7</ele>
        <time>1970-01-01T00:00:00Z</time>
      </trkpt>
      <trkpt lat="42.47099" lon="0.00518">
        <ele>836.2</ele>
        <time>1970-01-01T00:00:00Z</time>
      </trkpt>
      <trkpt lat="42.47087" lon="0.00521">
        <ele>830.1</ele>
        <time>1970-01-01T00:00:00Z</time>
      </trkpt>
      <trkpt lat="42.47075" lon="0.00512">
        <ele>826.1</ele>
        <time>1970-01-01T00:00:00Z</time>
      </trkpt>
      <trkpt lat="42.47045" lon="0.00506">
        <ele>812.9</ele>
        <time>1970-01-01T00:00:00Z</time>
      </trkpt>
      <trkpt lat="42.46961" lon="0.00489">
        <ele>789.7</ele>
        <time>1970-01-01T00:00:00Z</time>
      </trkpt>
      <trkpt lat="42.46874" lon="0.00451">
        <ele>777.8</ele>
        <time>1970-01-01T00:00:00Z</time>
      </trkpt>
      <trkpt lat="42.46832" lon="0.00446">
        <ele>761.1</ele>
        <time>1970-01-01T00:00:00Z</time>
      </trkpt>
      <trkpt lat="42.46809" lon="0.00449">
        <ele>751.5</ele>
        <time>1970-01-01T00:00:00Z</time>
      </trkpt>
      <trkpt lat="42.46784" lon="0.00467">
        <ele>742.2</ele>
        <time>1970-01-01T00:00:00Z</time>
      </trkpt>
      <trkpt lat="42.46723" lon="0.00464">
        <ele>740.1</ele>
        <time>1970-01-01T00:00:00Z</time>
      </trkpt>
      <trkpt lat="42.46706" lon="0.0045">
        <ele>738.6</ele>
        <time>1970-01-01T00:00:00Z</time>
      </trkpt>
      <trkpt lat="42.46697" lon="0.00428">
        <ele>740.1</ele>
        <time>1970-01-01T00:00:00Z</time>
      </trkpt>
      <trkpt lat="42.46693" lon="0.00427">
        <ele>737.3</ele>
        <time>1970-01-01T00:00:00Z</time>
      </trkpt>
      <trkpt lat="42.46688" lon="0.0042">
        <ele>735.1</ele>
        <time>1970-01-01T00:00:00Z</time>
      </trkpt>
      <trkpt lat="42.46678" lon="0.00386">
        <ele>732.7</ele>
        <time>1970-01-01T00:00:00Z</time>
      </trkpt>
      <trkpt lat="42.46669" lon="0.00372">
        <ele>728.8</ele>
        <time>1970-01-01T00:00:00Z</time>
      </trkpt>
      <trkpt lat="42.46653" lon="0.00356">
        <ele>721.7</ele>
        <time>1970-01-01T00:00:00Z</time>
      </trkpt>
      <trkpt lat="42.46649" lon="0.00348">
        <ele>721.5</ele>
        <time>1970-01-01T00:00:00Z</time>
      </trkpt>
      <trkpt lat="42.46647" lon="0.00332">
        <ele>721.5</ele>
        <time>1970-01-01T00:00:00Z</time>
      </trkpt>
      <trkpt lat="42.46648" lon="0.00328">
        <ele>721.9</ele>
        <time>1970-01-01T00:00:00Z</time>
      </trkpt>
      <trkpt lat="42.46645" lon="0.00325">
        <ele>710.5</ele>
        <time>2016-04-10T11:53:28Z</time>
      </trkpt>
      <trkpt lat="42.46645" lon="0.00326">
        <ele>710.5</ele>
        <time>2016-04-10T11:53:29Z</time>
      </trkpt>
      <trkpt lat="42.46644" lon="0.00329">
        <ele>710.5</ele>
        <time>2016-04-10T11:53:30Z</time>
      </trkpt>
      <trkpt lat="42.46644" lon="0.00332">
        <ele>710.5</ele>
        <time>2016-04-10T11:53:31Z</time>
      </trkpt>
      <trkpt lat="42.46643" lon="0.00335">
        <ele>710.5</ele>
        <time>2016-04-10T11:53:32Z</time>
      </trkpt>
      <trkpt lat="42.46642" lon="0.00339">
        <ele>710.5</ele>
        <time>2016-04-10T11:53:33Z</time>
      </trkpt>
      <trkpt lat="42.46642" lon="0.00342">
        <ele>710.5</ele>
        <time>2016-04-10T11:53:34Z</time>
      </trkpt>
      <trkpt lat="42.46645" lon="0.00362">
        <ele>711</ele>
        <time>2016-04-10T11:53:40Z</time>
      </trkpt>
      <trkpt lat="42.46657" lon="0.00378">
        <ele>711</ele>
        <time>2016-04-10T11:53:47Z</time>
      </trkpt>
      <trkpt lat="42.4667" lon="0.004">
        <ele>711</ele>
        <time>2016-04-10T11:53:55Z</time>
      </trkpt>
      <trkpt lat="42.46671" lon="0.00428">
        <ele>711</ele>
        <time>2016-04-10T11:54:02Z</time>
      </trkpt>
      <trkpt lat="42.46663" lon="0.00457">
        <ele>711</ele>
        <time>2016-04-10T11:54:10Z</time>
      </trkpt>
      <trkpt lat="42.4667" lon="0.0048">
        <ele>711.5</ele>
        <time>2016-04-10T11:54:16Z</time>
      </trkpt>
      <trkpt lat="42.46692" lon="0.0051">
        <ele>711.5</ele>
        <time>2016-04-10T11:54:25Z</time>
      </trkpt>
      <trkpt lat="42.46695" lon="0.00513">
        <ele>710.1</ele>
        <time>2016-04-10T11:54:26Z</time>
      </trkpt>
      <trkpt lat="42.46699" lon="0.00515">
        <ele>710.1</ele>
        <time>2016-04-10T11:54:27Z</time>
      </trkpt>
      <trkpt lat="42.46704" lon="0.00517">
        <ele>709.6</ele>
        <time>2016-04-10T11:54:28Z</time>
      </trkpt>
      <trkpt lat="42.46708" lon="0.00518">
        <ele>709.6</ele>
        <time>2016-04-10T11:54:29Z</time>
      </trkpt>
      <trkpt lat="42.46745" lon="0.00519">
        <ele>707.7</ele>
        <time>2016-04-10T11:54:36Z</time>
      </trkpt>
      <trkpt lat="42.46751" lon="0.0052">
        <ele>706.7</ele>
        <time>2016-04-10T11:54:37Z</time>
      </trkpt>
      <trkpt lat="42.46757" lon="0.00522">
        <ele>706.2</ele>
        <time>2016-04-10T11:54:38Z</time>
      </trkpt>
      <trkpt lat="42.46763" lon="0.00524">
        <ele>706.2</ele>
        <time>2016-04-10T11:54:39Z</time>
      </trkpt>
      <trkpt lat="42.46768" lon="0.00528">
        <ele>706.2</ele>
        <time>2016-04-10T11:54:40Z</time>
      </trkpt>
      <trkpt lat="42.46773" lon="0.00533">
        <ele>705.8</ele>
        <time>2016-04-10T11:54:41Z</time>
      </trkpt>
      <trkpt lat="42.46777" lon="0.0054">
        <ele>705.8</ele>
        <time>2016-04-10T11:54:42Z</time>
      </trkpt>
      <trkpt lat="42.46778" lon="0.00549">
        <ele>705.3</ele>
        <time>2016-04-10T11:54:43Z</time>
      </trkpt>
      <trkpt lat="42.46777" lon="0.00557">
        <ele>705.3</ele>
        <time>2016-04-10T11:54:44Z</time>
      </trkpt>
      <trkpt lat="42.46774" lon="0.00565">
        <ele>705.3</ele>
        <time>2016-04-10T11:54:45Z</time>
      </trkpt>
      <trkpt lat="42.46773" lon="0.00574">
        <ele>705.3</ele>
        <time>2016-04-10T11:54:46Z</time>
      </trkpt>
      <trkpt lat="42.46771" lon="0.00584">
        <ele>704.8</ele>
        <time>2016-04-10T11:54:47Z</time>
      </trkpt>
      <trkpt lat="42.4677" lon="0.00593">
        <ele>704.3</ele>
        <time>2016-04-10T11:54:48Z</time>
      </trkpt>
      <trkpt lat="42.46769" lon="0.00661">
        <ele>702.9</ele>
        <time>2016-04-10T11:54:55Z</time>
      </trkpt>
      <trkpt lat="42.46768" lon="0.00706">
        <ele>701.9</ele>
        <time>2016-04-10T11:55:00Z</time>
      </trkpt>
      <trkpt lat="42.46769" lon="0.00716">
        <ele>701.9</ele>
        <time>2016-04-10T11:55:01Z</time>
      </trkpt>
      <trkpt lat="42.46772" lon="0.00725">
        <ele>701.9</ele>
        <time>2016-04-10T11:55:02Z</time>
      </trkpt>
      <trkpt lat="42.46776" lon="0.00733">
        <ele>700.9</ele>
        <time>2016-04-10T11:55:03Z</time>
      </trkpt>
      <trkpt lat="42.46782" lon="0.0074">
        <ele>700.9</ele>
        <time>2016-04-10T11:55:04Z</time>
      </trkpt>
      <trkpt lat="42.46818" lon="0.00794">
        <ele>698.5</ele>
        <time>2016-04-10T11:55:11Z</time>
      </trkpt>
      <trkpt lat="42.4683" lon="0.00824">
        <ele>697.1</ele>
        <time>2016-04-10T11:55:14Z</time>
      </trkpt>
      <trkpt lat="42.46832" lon="0.00835">
        <ele>696.6</ele>
        <time>2016-04-10T11:55:15Z</time>
      </trkpt>
      <trkpt lat="42.46833" lon="0.00847">
        <ele>696.6</ele>
        <time>2016-04-10T11:55:16Z</time>
      </trkpt>
      <trkpt lat="42.46833" lon="0.00859">
        <ele>695.7</ele>
        <time>2016-04-10T11:55:17Z</time>
      </trkpt>
      <trkpt lat="42.46834" lon="0.00871">
        <ele>695.2</ele>
        <time>2016-04-10T11:55:18Z</time>
      </trkpt>
      <trkpt lat="42.46835" lon="0.00882">
        <ele>695.2</ele>
        <time>2016-04-10T11:55:19Z</time>
      </trkpt>
      <trkpt lat="42.46839" lon="0.00918">
        <ele>693.7</ele>
        <time>2016-04-10T11:55:22Z</time>
      </trkpt>
      <trkpt lat="42.46839" lon="0.00931">
        <ele>692.8</ele>
        <time>2016-04-10T11:55:23Z</time>
      </trkpt>
      <trkpt lat="42.46837" lon="0.00943">
        <ele>692.3</ele>
        <time>2016-04-10T11:55:24Z</time>
      </trkpt>
      <trkpt lat="42.46836" lon="0.00955">
        <ele>692.3</ele>
        <time>2016-04-10T11:55:25Z</time>
      </trkpt>
      <trkpt lat="42.46833" lon="0.00966">
        <ele>692.3</ele>
        <time>2016-04-10T11:55:26Z</time>
      </trkpt>
      <trkpt lat="42.46829" lon="0.00989">
        <ele>691.3</ele>
        <time>2016-04-10T11:55:28Z</time>
      </trkpt>
      <trkpt lat="42.46828" lon="0.01001">
        <ele>691.3</ele>
        <time>2016-04-10T11:55:29Z</time>
      </trkpt>
      <trkpt lat="42.46829" lon="0.01013">
        <ele>690.8</ele>
        <time>2016-04-10T11:55:30Z</time>
      </trkpt>
      <trkpt lat="42.46827" lon="0.01071">
        <ele>688</ele>
        <time>2016-04-10T11:55:35Z</time>
      </trkpt>
      <trkpt lat="42.46821" lon="0.0108">
        <ele>687</ele>
        <time>2016-04-10T11:55:36Z</time>
      </trkpt>
      <trkpt lat="42.46814" lon="0.01087">
        <ele>686.5</ele>
        <time>2016-04-10T11:55:37Z</time>
      </trkpt>
      <trkpt lat="42.46806" lon="0.01092">
        <ele>685.6</ele>
        <time>2016-04-10T11:55:38Z</time>
      </trkpt>
      <trkpt lat="42.46798" lon="0.01098">
        <ele>685.1</ele>
        <time>2016-04-10T11:55:39Z</time>
      </trkpt>
      <trkpt lat="42.46791" lon="0.01107">
        <ele>684.6</ele>
        <time>2016-04-10T11:55:40Z</time>
      </trkpt>
      <trkpt lat="42.46787" lon="0.01118">
        <ele>683.6</ele>
        <time>2016-04-10T11:55:41Z</time>
      </trkpt>
      <trkpt lat="42.46784" lon="0.0113">
        <ele>682.7</ele>
        <time>2016-04-10T11:55:42Z</time>
      </trkpt>
      <trkpt lat="42.46782" lon="0.01143">
        <ele>681.7</ele>
        <time>2016-04-10T11:55:43Z</time>
      </trkpt>
      <trkpt lat="42.46779" lon="0.01156">
        <ele>681.2</ele>
        <time>2016-04-10T11:55:44Z</time>
      </trkpt>
      <trkpt lat="42.46775" lon="0.01169">
        <ele>680.3</ele>
        <time>2016-04-10T11:55:45Z</time>
      </trkpt>
      <trkpt lat="42.46771" lon="0.01182">
        <ele>679.3</ele>
        <time>2016-04-10T11:55:46Z</time>
      </trkpt>
      <trkpt lat="42.46753" lon="0.01233">
        <ele>676.4</ele>
        <time>2016-04-10T11:55:50Z</time>
      </trkpt>
      <trkpt lat="42.46734" lon="0.0129">
        <ele>673.1</ele>
        <time>2016-04-10T11:55:54Z</time>
      </trkpt>
      <trkpt lat="42.46733" lon="0.01305">
        <ele>672.6</ele>
        <time>2016-04-10T11:55:55Z</time>
      </trkpt>
      <trkpt lat="42.46732" lon="0.0132">
        <ele>671.1</ele>
        <time>2016-04-10T11:55:56Z</time>
      </trkpt>
      <trkpt lat="42.46733" lon="0.01337">
        <ele>670.2</ele>
        <time>2016-04-10T11:55:57Z</time>
      </trkpt>
      <trkpt lat="42.46734" lon="0.01353">
        <ele>669.2</ele>
        <time>2016-04-10T11:55:58Z</time>
      </trkpt>
      <trkpt lat="42.46739" lon="0.01432">
        <ele>664.9</ele>
        <time>2016-04-10T11:56:03Z</time>
      </trkpt>
      <trkpt lat="42.46741" lon="0.01463">
        <ele>663.9</ele>
        <time>2016-04-10T11:56:05Z</time>
      </trkpt>
      <trkpt lat="42.46741" lon="0.01479">
        <ele>663.5</ele>
        <time>2016-04-10T11:56:06Z</time>
      </trkpt>
      <trkpt lat="42.4674" lon="0.01496">
        <ele>662</ele>
        <time>2016-04-10T11:56:07Z</time>
      </trkpt>
      <trkpt lat="42.46738" lon="0.0151">
        <ele>660.6</ele>
        <time>2016-04-10T11:56:08Z</time>
      </trkpt>
      <trkpt lat="42.46735" lon="0.01524">
        <ele>659.1</ele>
        <time>2016-04-10T11:56:09Z</time>
      </trkpt>
      <trkpt lat="42.46731" lon="0.01538">
        <ele>658.6</ele>
        <time>2016-04-10T11:56:10Z</time>
      </trkpt>
      <trkpt lat="42.46726" lon="0.01552">
        <ele>657.7</ele>
        <time>2016-04-10T11:56:11Z</time>
      </trkpt>
      <trkpt lat="42.46722" lon="0.01566">
        <ele>657.7</ele>
        <time>2016-04-10T11:56:12Z</time>
      </trkpt>
      <trkpt lat="42.46719" lon="0.0158">
        <ele>657.7</ele>
        <time>2016-04-10T11:56:13Z</time>
      </trkpt>
      <trkpt lat="42.46718" lon="0.01595">
        <ele>657.2</ele>
        <time>2016-04-10T11:56:14Z</time>
      </trkpt>
      <trkpt lat="42.4672" lon="0.0161">
        <ele>656.7</ele>
        <time>2016-04-10T11:56:15Z</time>
      </trkpt>
      <trkpt lat="42.46723" lon="0.01625">
        <ele>655.8</ele>
        <time>2016-04-10T11:56:16Z</time>
      </trkpt>
      <trkpt lat="42.46726" lon="0.01639">
        <ele>654.8</ele>
        <time>2016-04-10T11:56:17Z</time>
      </trkpt>
      <trkpt lat="42.46738" lon="0.01683">
        <ele>651.4</ele>
        <time>2016-04-10T11:56:20Z</time>
      </trkpt>
      <trkpt lat="42.46754" lon="0.01739">
        <ele>649</ele>
        <time>2016-04-10T11:56:24Z</time>
      </trkpt>
      <trkpt lat="42.46769" lon="0.01804">
        <ele>648.1</ele>
        <time>2016-04-10T11:56:29Z</time>
      </trkpt>
      <trkpt lat="42.46773" lon="0.01874">
        <ele>648.5</ele>
        <time>2016-04-10T11:56:35Z</time>
      </trkpt>
      <trkpt lat="42.46773" lon="0.01943">
        <ele>647.6</ele>
        <time>2016-04-10T11:56:42Z</time>
      </trkpt>
      <trkpt lat="42.46765" lon="0.02032">
        <ele>647.6</ele>
        <time>2016-04-10T11:56:52Z</time>
      </trkpt>
      <trkpt lat="42.46748" lon="0.021">
        <ele>646.6</ele>
        <time>2016-04-10T11:57:00Z</time>
      </trkpt>
      <trkpt lat="42.46745" lon="0.02107">
        <ele>646.6</ele>
        <time>2016-04-10T11:57:01Z</time>
      </trkpt>
      <trkpt lat="42.46741" lon="0.02114">
        <ele>646.6</ele>
        <time>2016-04-10T11:57:02Z</time>
      </trkpt>
      <trkpt lat="42.46737" lon="0.02121">
        <ele>646.6</ele>
        <time>2016-04-10T11:57:03Z</time>
      </trkpt>
      <trkpt lat="42.46732" lon="0.02127">
        <ele>646.6</ele>
        <time>2016-04-10T11:57:04Z</time>
      </trkpt>
      <trkpt lat="42.46727" lon="0.02132">
        <ele>646.6</ele>
        <time>2016-04-10T11:57:05Z</time>
      </trkpt>
      <trkpt lat="42.46716" lon="0.02144">
        <ele>646.1</ele>
        <time>2016-04-10T11:57:07Z</time>
      </trkpt>
      <trkpt lat="42.4671" lon="0.02148">
        <ele>646.1</ele>
        <time>2016-04-10T11:57:08Z</time>
      </trkpt>
      <trkpt lat="42.46657" lon="0.02194">
        <ele>645.2</ele>
        <time>2016-04-10T11:57:18Z</time>
      </trkpt>
      <trkpt lat="42.46629" lon="0.02239">
        <ele>644.7</ele>
        <time>2016-04-10T11:57:24Z</time>
      </trkpt>
      <trkpt lat="42.46618" lon="0.02262">
        <ele>644.7</ele>
        <time>2016-04-10T11:57:27Z</time>
      </trkpt>
      <trkpt lat="42.46601" lon="0.02321">
        <ele>644.7</ele>
        <time>2016-04-10T11:57:35Z</time>
      </trkpt>
      <trkpt lat="42.46595" lon="0.02385">
        <ele>644.7</ele>
        <time>2016-04-10T11:57:43Z</time>
      </trkpt>
      <trkpt lat="42.46596" lon="0.02394">
        <ele>644.7</ele>
        <time>2016-04-10T11:57:44Z</time>
      </trkpt>
      <trkpt lat="42.46608" lon="0.02472">
        <ele>644.7</ele>
        <time>2016-04-10T11:57:54Z</time>
      </trkpt>
      <trkpt lat="42.4662" lon="0.02538">
        <ele>644.2</ele>
        <time>2016-04-10T11:58:03Z</time>
      </trkpt>
      <trkpt lat="42.46621" lon="0.02545">
        <ele>644.2</ele>
        <time>2016-04-10T11:58:04Z</time>
      </trkpt>
      <trkpt lat="42.4662" lon="0.02553">
        <ele>644.2</ele>
        <time>2016-04-10T11:58:05Z</time>
      </trkpt>
      <trkpt lat="42.4662" lon="0.0256">
        <ele>644.2</ele>
        <time>2016-04-10T11:58:06Z</time>
      </trkpt>
      <trkpt lat="42.46619" lon="0.02567">
        <ele>644.2</ele>
        <time>2016-04-10T11:58:07Z</time>
      </trkpt>
      <trkpt lat="42.46615" lon="0.02625">
        <ele>644.2</ele>
        <time>2016-04-10T11:58:14Z</time>
      </trkpt>
      <trkpt lat="42.46611" lon="0.02724">
        <ele>643.3</ele>
        <time>2016-04-10T11:58:24Z</time>
      </trkpt>
      <trkpt lat="42.46606" lon="0.02824">
        <ele>641.3</ele>
        <time>2016-04-10T11:58:34Z</time>
      </trkpt>
      <trkpt lat="42.46603" lon="0.02906">
        <ele>640.9</ele>
        <time>2016-04-10T11:58:43Z</time>
      </trkpt>
      <trkpt lat="42.46599" lon="0.02997">
        <ele>640.9</ele>
        <time>2016-04-10T11:58:54Z</time>
      </trkpt>
      <trkpt lat="42.46598" lon="0.0302">
        <ele>640.9</ele>
        <time>2016-04-10T11:58:57Z</time>
      </trkpt>
      <trkpt lat="42.46597" lon="0.03041">
        <ele>642.3</ele>
        <time>2016-04-10T11:59:00Z</time>
      </trkpt>
      <trkpt lat="42.46589" lon="0.03122">
        <ele>642.8</ele>
        <time>2016-04-10T11:59:11Z</time>
      </trkpt>
      <trkpt lat="42.46576" lon="0.03159">
        <ele>642.8</ele>
        <time>2016-04-10T11:59:16Z</time>
      </trkpt>
      <trkpt lat="42.46556" lon="0.03209">
        <ele>643.3</ele>
        <time>2016-04-10T11:59:23Z</time>
      </trkpt>
      <trkpt lat="42.46552" lon="0.03215">
        <ele>643.3</ele>
        <time>2016-04-10T11:59:24Z</time>
      </trkpt>
      <trkpt lat="42.46548" lon="0.03221">
        <ele>643.3</ele>
        <time>2016-04-10T11:59:25Z</time>
      </trkpt>
      <trkpt lat="42.4653" lon="0.03248">
        <ele>643.7</ele>
        <time>2016-04-10T11:59:30Z</time>
      </trkpt>
      <trkpt lat="42.46527" lon="0.03254">
        <ele>643.7</ele>
        <time>2016-04-10T11:59:31Z</time>
      </trkpt>
      <trkpt lat="42.46523" lon="0.03259">
        <ele>643.7</ele>
        <time>2016-04-10T11:59:32Z</time>
      </trkpt>
      <trkpt lat="42.46518" lon="0.03263">
        <ele>643.7</ele>
        <time>2016-04-10T11:59:33Z</time>
      </trkpt>
      <trkpt lat="42.46512" lon="0.03266">
        <ele>643.7</ele>
        <time>2016-04-10T11:59:34Z</time>
      </trkpt>
      <trkpt lat="42.46507" lon="0.03269">
        <ele>643.7</ele>
        <time>2016-04-10T11:59:35Z</time>
      </trkpt>
      <trkpt lat="42.46503" lon="0.03274">
        <ele>643.7</ele>
        <time>2016-04-10T11:59:36Z</time>
      </trkpt>
      <trkpt lat="42.46498" lon="0.03281">
        <ele>643.7</ele>
        <time>2016-04-10T11:59:37Z</time>
      </trkpt>
      <trkpt lat="42.46494" lon="0.03287">
        <ele>643.7</ele>
        <time>2016-04-10T11:59:38Z</time>
      </trkpt>
      <trkpt lat="42.46488" lon="0.03292">
        <ele>643.7</ele>
        <time>2016-04-10T11:59:39Z</time>
      </trkpt>
      <trkpt lat="42.46482" lon="0.03296">
        <ele>643.7</ele>
        <time>2016-04-10T11:59:40Z</time>
      </trkpt>
      <trkpt lat="42.46475" lon="0.03298">
        <ele>642.3</ele>
        <time>2016-04-10T11:59:41Z</time>
      </trkpt>
      <trkpt lat="42.46468" lon="0.03298">
        <ele>642.3</ele>
        <time>2016-04-10T11:59:42Z</time>
      </trkpt>
      <trkpt lat="42.46461" lon="0.03298">
        <ele>642.3</ele>
        <time>2016-04-10T11:59:43Z</time>
      </trkpt>
      <trkpt lat="42.46454" lon="0.03297">
        <ele>642.3</ele>
        <time>2016-04-10T11:59:44Z</time>
      </trkpt>
      <trkpt lat="42.46448" lon="0.03295">
        <ele>642.3</ele>
        <time>2016-04-10T11:59:45Z</time>
      </trkpt>
      <trkpt lat="42.46441" lon="0.03293">
        <ele>641.8</ele>
        <time>2016-04-10T11:59:46Z</time>
      </trkpt>
      <trkpt lat="42.46434" lon="0.03292">
        <ele>641.8</ele>
        <time>2016-04-10T11:59:47Z</time>
      </trkpt>
      <trkpt lat="42.46427" lon="0.03292">
        <ele>641.8</ele>
        <time>2016-04-10T11:59:48Z</time>
      </trkpt>
      <trkpt lat="42.46421" lon="0.03295">
        <ele>641.8</ele>
        <time>2016-04-10T11:59:49Z</time>
      </trkpt>
      <trkpt lat="42.46415" lon="0.03298">
        <ele>641.8</ele>
        <time>2016-04-10T11:59:50Z</time>
      </trkpt>
      <trkpt lat="42.4641" lon="0.03304">
        <ele>641.8</ele>
        <time>2016-04-10T11:59:51Z</time>
      </trkpt>
      <trkpt lat="42.46396" lon="0.03313">
        <ele>641.3</ele>
        <time>2016-04-10T11:59:53Z</time>
      </trkpt>
      <trkpt lat="42.46389" lon="0.03315">
        <ele>641.3</ele>
        <time>2016-04-10T11:59:54Z</time>
      </trkpt>
      <trkpt lat="42.46371" lon="0.03321">
        <ele>641.3</ele>
        <time>2016-04-10T11:59:57Z</time>
      </trkpt>
      <trkpt lat="42.46364" lon="0.03325">
        <ele>640.9</ele>
        <time>2016-04-10T11:59:58Z</time>
      </trkpt>
      <trkpt lat="42.46358" lon="0.03329">
        <ele>640.9</ele>
        <time>2016-04-10T11:59:59Z</time>
      </trkpt>
      <trkpt lat="42.46326" lon="0.03357">
        <ele>640.4</ele>
        <time>2016-04-10T12:00:04Z</time>
      </trkpt>
      <trkpt lat="42.46322" lon="0.03362">
        <ele>639.9</ele>
        <time>2016-04-10T12:00:05Z</time>
      </trkpt>
      <trkpt lat="42.46318" lon="0.0337">
        <ele>639.4</ele>
        <time>2016-04-10T12:00:06Z</time>
      </trkpt>
      <trkpt lat="42.46315" lon="0.03378">
        <ele>639.4</ele>
        <time>2016-04-10T12:00:07Z</time>
      </trkpt>
      <trkpt lat="42.46313" lon="0.03387">
        <ele>639.4</ele>
        <time>2016-04-10T12:00:08Z</time>
      </trkpt>
      <trkpt lat="42.46312" lon="0.03396">
        <ele>639.4</ele>
        <time>2016-04-10T12:00:09Z</time>
      </trkpt>
      <trkpt lat="42.46313" lon="0.03406">
        <ele>639.4</ele>
        <time>2016-04-10T12:00:10Z</time>
      </trkpt>
      <trkpt lat="42.46315" lon="0.03415">
        <ele>639.4</ele>
        <time>2016-04-10T12:00:11Z</time>
      </trkpt>
      <trkpt lat="42.46327" lon="0.03458">
        <ele>638.9</ele>
        <time>2016-04-10T12:00:16Z</time>
      </trkpt>
      <trkpt lat="42.46329" lon="0.03466">
        <ele>638.9</ele>
        <time>2016-04-10T12:00:17Z</time>
      </trkpt>
      <trkpt lat="42.46332" lon="0.03474">
        <ele>638.9</ele>
        <time>2016-04-10T12:00:18Z</time>
      </trkpt>
      <trkpt lat="42.46358" lon="0.03526">
        <ele>638.9</ele>
        <time>2016-04-10T12:00:25Z</time>
      </trkpt>
      <trkpt lat="42.46366" lon="0.0355">
        <ele>638.5</ele>
        <time>2016-04-10T12:00:28Z</time>
      </trkpt>
      <trkpt lat="42.46367" lon="0.0356">
        <ele>638.5</ele>
        <time>2016-04-10T12:00:29Z</time>
      </trkpt>
      <trkpt lat="42.46366" lon="0.03615">
        <ele>638</ele>
        <time>2016-04-10T12:00:35Z</time>
      </trkpt>
      <trkpt lat="42.46364" lon="0.03624">
        <ele>638</ele>
        <time>2016-04-10T12:00:36Z</time>
      </trkpt>
      <trkpt lat="42.46349" lon="0.03697">
        <ele>637.5</ele>
        <time>2016-04-10T12:00:44Z</time>
      </trkpt>
      <trkpt lat="42.46337" lon="0.03776">
        <ele>637</ele>
        <time>2016-04-10T12:00:52Z</time>
      </trkpt>
      <trkpt lat="42.46325" lon="0.03876">
        <ele>636.5</ele>
        <time>2016-04-10T12:01:02Z</time>
      </trkpt>
      <trkpt lat="42.46326" lon="0.0396">
        <ele>635.6</ele>
        <time>2016-04-10T12:01:10Z</time>
      </trkpt>
      <trkpt lat="42.46341" lon="0.04064">
        <ele>634.6</ele>
        <time>2016-04-10T12:01:20Z</time>
      </trkpt>
      <trkpt lat="42.46369" lon="0.04163">
        <ele>634.1</ele>
        <time>2016-04-10T12:01:30Z</time>
      </trkpt>
      <trkpt lat="42.46394" lon="0.04238">
        <ele>633.7</ele>
        <time>2016-04-10T12:01:38Z</time>
      </trkpt>
      <trkpt lat="42.46419" lon="0.04308">
        <ele>633.7</ele>
        <time>2016-04-10T12:01:46Z</time>
      </trkpt>
      <trkpt lat="42.4644" lon="0.04369">
        <ele>633.7</ele>
        <time>2016-04-10T12:01:53Z</time>
      </trkpt>
      <trkpt lat="42.46463" lon="0.04441">
        <ele>633.7</ele>
        <time>2016-04-10T12:02:01Z</time>
      </trkpt>
      <trkpt lat="42.46494" lon="0.04535">
        <ele>632.7</ele>
        <time>2016-04-10T12:02:11Z</time>
      </trkpt>
      <trkpt lat="42.46526" lon="0.04632">
        <ele>631.7</ele>
        <time>2016-04-10T12:02:21Z</time>
      </trkpt>
      <trkpt lat="42.46552" lon="0.04712">
        <ele>631.2</ele>
        <time>2016-04-10T12:02:30Z</time>
      </trkpt>
      <trkpt lat="42.46572" lon="0.04788">
        <ele>631.2</ele>
        <time>2016-04-10T12:02:39Z</time>
      </trkpt>
      <trkpt lat="42.4658" lon="0.04867">
        <ele>631.2</ele>
        <time>2016-04-10T12:02:48Z</time>
      </trkpt>
      <trkpt lat="42.46575" lon="0.04938">
        <ele>632.2</ele>
        <time>2016-04-10T12:02:57Z</time>
      </trkpt>
      <trkpt lat="42.46563" lon="0.04998">
        <ele>633.2</ele>
        <time>2016-04-10T12:03:05Z</time>
      </trkpt>
      <trkpt lat="42.46554" lon="0.05027">
        <ele>634.1</ele>
        <time>2016-04-10T12:03:09Z</time>
      </trkpt>
      <trkpt lat="42.46528" lon="0.05087">
        <ele>634.6</ele>
        <time>2016-04-10T12:03:18Z</time>
      </trkpt>
      <trkpt lat="42.46492" lon="0.05143">
        <ele>634.6</ele>
        <time>2016-04-10T12:03:27Z</time>
      </trkpt>
      <trkpt lat="42.46473" lon="0.05164">
        <ele>634.6</ele>
        <time>2016-04-10T12:03:31Z</time>
      </trkpt>
      <trkpt lat="42.46468" lon="0.0517">
        <ele>634.6</ele>
        <time>2016-04-10T12:03:32Z</time>
      </trkpt>
      <trkpt lat="42.46422" lon="0.05207">
        <ele>635.1</ele>
        <time>2016-04-10T12:03:40Z</time>
      </trkpt>
      <trkpt lat="42.46363" lon="0.0523">
        <ele>635.1</ele>
        <time>2016-04-10T12:03:49Z</time>
      </trkpt>
      <trkpt lat="42.46315" lon="0.05237">
        <ele>635.1</ele>
        <time>2016-04-10T12:03:56Z</time>
      </trkpt>
      <trkpt lat="42.46279" lon="0.05235">
        <ele>633.7</ele>
        <time>2016-04-10T12:04:01Z</time>
      </trkpt>
      <trkpt lat="42.46218" lon="0.05217">
        <ele>633.2</ele>
        <time>2016-04-10T12:04:09Z</time>
      </trkpt>
      <trkpt lat="42.46131" lon="0.0518">
        <ele>629.8</ele>
        <time>2016-04-10T12:04:20Z</time>
      </trkpt>
      <trkpt lat="42.4604" lon="0.05142">
        <ele>626.9</ele>
        <time>2016-04-10T12:04:31Z</time>
      </trkpt>
      <trkpt lat="42.45958" lon="0.0511">
        <ele>625</ele>
        <time>2016-04-10T12:04:41Z</time>
      </trkpt>
      <trkpt lat="42.45899" lon="0.05097">
        <ele>622.6</ele>
        <time>2016-04-10T12:04:48Z</time>
      </trkpt>
      <trkpt lat="42.45831" lon="0.05103">
        <ele>622.1</ele>
        <time>2016-04-10T12:04:56Z</time>
      </trkpt>
      <trkpt lat="42.45778" lon="0.05126">
        <ele>622.1</ele>
        <time>2016-04-10T12:05:03Z</time>
      </trkpt>
      <trkpt lat="42.45723" lon="0.0517">
        <ele>622.1</ele>
        <time>2016-04-10T12:05:11Z</time>
      </trkpt>
      <trkpt lat="42.45678" lon="0.05227">
        <ele>621.6</ele>
        <time>2016-04-10T12:05:19Z</time>
      </trkpt>
      <trkpt lat="42.45639" lon="0.05294">
        <ele>621.2</ele>
        <time>2016-04-10T12:05:27Z</time>
      </trkpt>
      <trkpt lat="42.45603" lon="0.0535">
        <ele>621.2</ele>
        <time>2016-04-10T12:05:34Z</time>
      </trkpt>
      <trkpt lat="42.45548" lon="0.05416">
        <ele>620.7</ele>
        <time>2016-04-10T12:05:43Z</time>
      </trkpt>
      <trkpt lat="42.45487" lon="0.0547">
        <ele>620.2</ele>
        <time>2016-04-10T12:05:52Z</time>
      </trkpt>
      <trkpt lat="42.45427" lon="0.05524">
        <ele>619.7</ele>
        <time>2016-04-10T12:06:01Z</time>
      </trkpt>
      <trkpt lat="42.45375" lon="0.05569">
        <ele>619.7</ele>
        <time>2016-04-10T12:06:09Z</time>
      </trkpt>
      <trkpt lat="42.45315" lon="0.05619">
        <ele>619.2</ele>
        <time>2016-04-10T12:06:18Z</time>
      </trkpt>
      <trkpt lat="42.45259" lon="0.05653">
        <ele>618.8</ele>
        <time>2016-04-10T12:06:26Z</time>
      </trkpt>
      <trkpt lat="42.45193" lon="0.05678">
        <ele>617.8</ele>
        <time>2016-04-10T12:06:35Z</time>
      </trkpt>
      <trkpt lat="42.4512" lon="0.05698">
        <ele>615.9</ele>
        <time>2016-04-10T12:06:44Z</time>
      </trkpt>
      <trkpt lat="42.45059" lon="0.05726">
        <ele>613</ele>
        <time>2016-04-10T12:06:51Z</time>
      </trkpt>
      <trkpt lat="42.45041" lon="0.05737">
        <ele>611.5</ele>
        <time>2016-04-10T12:06:53Z</time>
      </trkpt>
      <trkpt lat="42.45032" lon="0.05744">
        <ele>611.5</ele>
        <time>2016-04-10T12:06:54Z</time>
      </trkpt>
      <trkpt lat="42.44981" lon="0.05791">
        <ele>610.1</ele>
        <time>2016-04-10T12:07:01Z</time>
      </trkpt>
      <trkpt lat="42.44976" lon="0.05798">
        <ele>610.6</ele>
        <time>2016-04-10T12:07:02Z</time>
      </trkpt>
      <trkpt lat="42.44938" lon="0.05851">
        <ele>609.1</ele>
        <time>2016-04-10T12:07:10Z</time>
      </trkpt>
      <trkpt lat="42.4493" lon="0.05864">
        <ele>609.1</ele>
        <time>2016-04-10T12:07:12Z</time>
      </trkpt>
      <trkpt lat="42.44888" lon="0.05927">
        <ele>609.1</ele>
        <time>2016-04-10T12:07:21Z</time>
      </trkpt>
      <trkpt lat="42.44848" lon="0.05991">
        <ele>608.7</ele>
        <time>2016-04-10T12:07:31Z</time>
      </trkpt>
      <trkpt lat="42.44814" lon="0.06045">
        <ele>608.7</ele>
        <time>2016-04-10T12:07:39Z</time>
      </trkpt>
      <trkpt lat="42.44806" lon="0.06058">
        <ele>608.7</ele>
        <time>2016-04-10T12:07:41Z</time>
      </trkpt>
      <trkpt lat="42.44802" lon="0.06064">
        <ele>608.7</ele>
        <time>2016-04-10T12:07:42Z</time>
      </trkpt>
      <trkpt lat="42.4477" lon="0.06114">
        <ele>608.2</ele>
        <time>2016-04-10T12:07:50Z</time>
      </trkpt>
      <trkpt lat="42.4472" lon="0.06194">
        <ele>606.2</ele>
        <time>2016-04-10T12:08:02Z</time>
      </trkpt>
      <trkpt lat="42.44676" lon="0.06265">
        <ele>604.3</ele>
        <time>2016-04-10T12:08:12Z</time>
      </trkpt>
      <trkpt lat="42.44638" lon="0.06323">
        <ele>602.9</ele>
        <time>2016-04-10T12:08:20Z</time>
      </trkpt>
      <trkpt lat="42.44586" lon="0.06406">
        <ele>601.4</ele>
        <time>2016-04-10T12:08:31Z</time>
      </trkpt>
      <trkpt lat="42.44544" lon="0.06473">
        <ele>600.5</ele>
        <time>2016-04-10T12:08:40Z</time>
      </trkpt>
      <trkpt lat="42.4451" lon="0.06527">
        <ele>600.5</ele>
        <time>2016-04-10T12:08:48Z</time>
      </trkpt>
      <trkpt lat="42.44475" lon="0.06581">
        <ele>600.5</ele>
        <time>2016-04-10T12:08:57Z</time>
      </trkpt>
      <trkpt lat="42.44437" lon="0.06641">
        <ele>601.4</ele>
        <time>2016-04-10T12:09:07Z</time>
      </trkpt>
      <trkpt lat="42.44404" lon="0.067">
        <ele>601.4</ele>
        <time>2016-04-10T12:09:17Z</time>
      </trkpt>
      <trkpt lat="42.44382" lon="0.06738">
        <ele>600</ele>
        <time>2016-04-10T12:09:24Z</time>
      </trkpt>
      <trkpt lat="42.44353" lon="0.0679">
        <ele>599</ele>
        <time>2016-04-10T12:09:34Z</time>
      </trkpt>
      <trkpt lat="42.44323" lon="0.06839">
        <ele>599</ele>
        <time>2016-04-10T12:09:44Z</time>
      </trkpt>
      <trkpt lat="42.44302" lon="0.06878">
        <ele>599</ele>
        <time>2016-04-10T12:09:53Z</time>
      </trkpt>
      <trkpt lat="42.44284" lon="0.06909">
        <ele>599</ele>
        <time>2016-04-10T12:10:02Z</time>
      </trkpt>
      <trkpt lat="42.44274" lon="0.06929">
        <ele>599</ele>
        <time>2016-04-10T12:10:09Z</time>
      </trkpt>
      <trkpt lat="42.44259" lon="0.06951">
        <ele>600.5</ele>
        <time>2016-04-10T12:10:17Z</time>
      </trkpt>
      <trkpt lat="42.44249" lon="0.06965">
        <ele>600.5</ele>
        <time>2016-04-10T12:10:25Z</time>
      </trkpt>
      <trkpt lat="42.44249" lon="0.06966">
        <ele>600.5</ele>
        <time>2016-04-10T12:10:32Z</time>
      </trkpt>
      <trkpt lat="42.44249" lon="0.06967">
        <ele>600.5</ele>
        <time>2016-04-10T12:10:49Z</time>
      </trkpt>
      <trkpt lat="42.44249" lon="0.06965">
        <ele>600.5</ele>
        <time>2016-04-10T12:10:55Z</time>
      </trkpt>
      <trkpt lat="42.4425" lon="0.06963">
        <ele>600.5</ele>
        <time>2016-04-10T12:10:56Z</time>
      </trkpt>
      <trkpt lat="42.44251" lon="0.06962">
        <ele>600.5</ele>
        <time>2016-04-10T12:10:57Z</time>
      </trkpt>
      <trkpt lat="42.44253" lon="0.0696">
        <ele>600.5</ele>
        <time>2016-04-10T12:10:58Z</time>
      </trkpt>
      <trkpt lat="42.44254" lon="0.0696">
        <ele>600.5</ele>
        <time>2016-04-10T12:10:59Z</time>
      </trkpt>
      <trkpt lat="42.44256" lon="0.06961">
        <ele>600.5</ele>
        <time>2016-04-10T12:11:00Z</time>
      </trkpt>
      <trkpt lat="42.44258" lon="0.06961">
        <ele>600.5</ele>
        <time>2016-04-10T12:11:01Z</time>
      </trkpt>
      <trkpt lat="42.4426" lon="0.06961">
        <ele>600.5</ele>
        <time>2016-04-10T12:11:02Z</time>
      </trkpt>
      <trkpt lat="42.44261" lon="0.06961">
        <ele>600.5</ele>
        <time>2016-04-10T12:11:03Z</time>
      </trkpt>
      <trkpt lat="42.44262" lon="0.06961">
        <ele>600.5</ele>
        <time>2016-04-10T12:11:04Z</time>
      </trkpt>
      <trkpt lat="42.44264" lon="0.06961">
        <ele>601</ele>
        <time>2016-04-10T12:11:09Z</time>
      </trkpt>
      <trkpt lat="42.44265" lon="0.06959">
        <ele>601</ele>
        <time>2016-04-10T12:11:16Z</time>
      </trkpt>
      <trkpt lat="42.44265" lon="0.06958">
        <ele>601</ele>
        <time>2016-04-10T12:11:23Z</time>
      </trkpt>
    </trkseg>
  </trk>
</gpx>